<?xml version="1.0" encoding="UTF-8" standalone="no" ?>
<gpx xmlns="http://www.topografix.com/GPX/1/1" xmlns:xsi="http://www.w3.org/2001/XMLSchema-instance" xsi:schemaLocation="http://www.topografix.com/GPX/1/1 http://www.topografix.com/GPX/1/1/gpx.xsd" version="1.1" creator="VisuGPX - https://www.visugpx.com">
  <metadata>
    <name>LA BALME D HOSTUN DROME -29 Mars 26</name>
  </metadata>
  <trk>
    <name><![CDATA[Trace 1774768548000]]></name>
    <extensions>
      <line xmlns="http://www.topografix.com/GPX/gpx_style/0/2">
        <color>0000FF</color>
        <opacity>1</opacity>
        <width>4</width>
      </line>
    </extensions>
    <trkseg>
      <trkpt lat="45.05556" lon="5.22544">
        <ele>214.6</ele>
        <time>2026-03-29T07:15:48.000Z</time>
      </trkpt>
      <trkpt lat="45.05576" lon="5.22578">
        <ele>215.1</ele>
        <time>2026-03-29T07:16:48.000Z</time>
      </trkpt>
      <trkpt lat="45.05581" lon="5.22585">
        <ele>215.2</ele>
        <time>2026-03-29T07:17:03.000Z</time>
      </trkpt>
      <trkpt lat="45.05587" lon="5.22592">
        <ele>215.6</ele>
        <time>2026-03-29T07:17:18.000Z</time>
      </trkpt>
      <trkpt lat="45.05597" lon="5.22606">
        <ele>216.2</ele>
        <time>2026-03-29T07:17:48.000Z</time>
      </trkpt>
      <trkpt lat="45.05594" lon="5.22613">
        <ele>216.7</ele>
        <time>2026-03-29T07:17:51.749Z</time>
      </trkpt>
      <trkpt lat="45.0559" lon="5.22619">
        <ele>217</ele>
        <time>2026-03-29T07:17:55.499Z</time>
      </trkpt>
      <trkpt lat="45.05584" lon="5.22632">
        <ele>217.8</ele>
        <time>2026-03-29T07:18:02.999Z</time>
      </trkpt>
      <trkpt lat="45.05573" lon="5.22652">
        <ele>219.7</ele>
        <time>2026-03-29T07:18:14.249Z</time>
      </trkpt>
      <trkpt lat="45.05567" lon="5.22665">
        <ele>221.1</ele>
        <time>2026-03-29T07:18:21.749Z</time>
      </trkpt>
      <trkpt lat="45.0556" lon="5.22678">
        <ele>223.3</ele>
        <time>2026-03-29T07:18:29.249Z</time>
      </trkpt>
      <trkpt lat="45.05557" lon="5.22685">
        <ele>224.5</ele>
        <time>2026-03-29T07:18:32.999Z</time>
      </trkpt>
      <trkpt lat="45.05553" lon="5.22691">
        <ele>225.9</ele>
        <time>2026-03-29T07:18:36.749Z</time>
      </trkpt>
      <trkpt lat="45.0555" lon="5.22698">
        <ele>227.4</ele>
        <time>2026-03-29T07:18:40.499Z</time>
      </trkpt>
      <trkpt lat="45.05546" lon="5.22704">
        <ele>228.9</ele>
        <time>2026-03-29T07:18:44.249Z</time>
      </trkpt>
      <trkpt lat="45.05543" lon="5.22711">
        <ele>230.2</ele>
        <time>2026-03-29T07:18:48.000Z</time>
      </trkpt>
      <trkpt lat="45.05572" lon="5.22734">
        <ele>231.4</ele>
        <time>2026-03-29T07:19:48.000Z</time>
      </trkpt>
      <trkpt lat="45.05584" lon="5.22754">
        <ele>234.6</ele>
        <time>2026-03-29T07:20:10.500Z</time>
      </trkpt>
      <trkpt lat="45.05589" lon="5.2276">
        <ele>235.5</ele>
        <time>2026-03-29T07:20:18.000Z</time>
      </trkpt>
      <trkpt lat="45.05605" lon="5.22786">
        <ele>238.8</ele>
        <time>2026-03-29T07:20:48.000Z</time>
      </trkpt>
      <trkpt lat="45.05589" lon="5.22836">
        <ele>243.8</ele>
        <time>2026-03-29T07:21:48.000Z</time>
      </trkpt>
      <trkpt lat="45.05581" lon="5.22851">
        <ele>245.3</ele>
        <time>2026-03-29T07:22:02.999Z</time>
      </trkpt>
      <trkpt lat="45.05576" lon="5.22858">
        <ele>246</ele>
        <time>2026-03-29T07:22:10.499Z</time>
      </trkpt>
      <trkpt lat="45.05568" lon="5.22873">
        <ele>247.4</ele>
        <time>2026-03-29T07:22:25.499Z</time>
      </trkpt>
      <trkpt lat="45.05555" lon="5.22895">
        <ele>249.7</ele>
        <time>2026-03-29T07:22:48.000Z</time>
      </trkpt>
      <trkpt lat="45.05551" lon="5.22938">
        <ele>254.4</ele>
        <time>2026-03-29T07:23:22.627Z</time>
      </trkpt>
      <trkpt lat="45.05549" lon="5.22948">
        <ele>255.5</ele>
        <time>2026-03-29T07:23:31.284Z</time>
      </trkpt>
      <trkpt lat="45.05546" lon="5.2298">
        <ele>259.3</ele>
        <time>2026-03-29T07:23:57.255Z</time>
      </trkpt>
      <trkpt lat="45.05564" lon="5.22999">
        <ele>260.9</ele>
        <time>2026-03-29T07:24:22.627Z</time>
      </trkpt>
      <trkpt lat="45.05569" lon="5.23003">
        <ele>261.3</ele>
        <time>2026-03-29T07:24:28.970Z</time>
      </trkpt>
      <trkpt lat="45.05573" lon="5.23008">
        <ele>261.7</ele>
        <time>2026-03-29T07:24:35.313Z</time>
      </trkpt>
      <trkpt lat="45.05578" lon="5.23012">
        <ele>262</ele>
        <time>2026-03-29T07:24:41.656Z</time>
      </trkpt>
      <trkpt lat="45.05582" lon="5.23017">
        <ele>262.3</ele>
        <time>2026-03-29T07:24:48.000Z</time>
      </trkpt>
      <trkpt lat="45.05592" lon="5.23036">
        <ele>264.5</ele>
        <time>2026-03-29T07:25:48.000Z</time>
      </trkpt>
      <trkpt lat="45.056" lon="5.23041">
        <ele>264.4</ele>
        <time>2026-03-29T07:26:03.000Z</time>
      </trkpt>
      <trkpt lat="45.05608" lon="5.23045">
        <ele>264.2</ele>
        <time>2026-03-29T07:26:18.000Z</time>
      </trkpt>
      <trkpt lat="45.05615" lon="5.2305">
        <ele>264.1</ele>
        <time>2026-03-29T07:26:33.000Z</time>
      </trkpt>
      <trkpt lat="45.05623" lon="5.23054">
        <ele>264</ele>
        <time>2026-03-29T07:26:48.000Z</time>
      </trkpt>
      <trkpt lat="45.05697" lon="5.23038">
        <ele>253.5</ele>
        <time>2026-03-29T07:27:48.000Z</time>
      </trkpt>
      <trkpt lat="45.05702" lon="5.2304">
        <ele>254</ele>
        <time>2026-03-29T07:27:51.750Z</time>
      </trkpt>
      <trkpt lat="45.05706" lon="5.23043">
        <ele>254.5</ele>
        <time>2026-03-29T07:27:55.500Z</time>
      </trkpt>
      <trkpt lat="45.05716" lon="5.23047">
        <ele>255.6</ele>
        <time>2026-03-29T07:28:03.000Z</time>
      </trkpt>
      <trkpt lat="45.05725" lon="5.23052">
        <ele>256.8</ele>
        <time>2026-03-29T07:28:10.500Z</time>
      </trkpt>
      <trkpt lat="45.05739" lon="5.23058">
        <ele>258.3</ele>
        <time>2026-03-29T07:28:21.750Z</time>
      </trkpt>
      <trkpt lat="45.05743" lon="5.23061">
        <ele>258.9</ele>
        <time>2026-03-29T07:28:25.500Z</time>
      </trkpt>
      <trkpt lat="45.05753" lon="5.23065">
        <ele>259.8</ele>
        <time>2026-03-29T07:28:33.000Z</time>
      </trkpt>
      <trkpt lat="45.05762" lon="5.2307">
        <ele>260</ele>
        <time>2026-03-29T07:28:40.500Z</time>
      </trkpt>
      <trkpt lat="45.05771" lon="5.23074">
        <ele>259.7</ele>
        <time>2026-03-29T07:28:48.000Z</time>
      </trkpt>
      <trkpt lat="45.05777" lon="5.23075">
        <ele>258.8</ele>
        <time>2026-03-29T07:28:55.500Z</time>
      </trkpt>
      <trkpt lat="45.05784" lon="5.23075">
        <ele>258.4</ele>
        <time>2026-03-29T07:29:03.000Z</time>
      </trkpt>
      <trkpt lat="45.0579" lon="5.23076">
        <ele>258.1</ele>
        <time>2026-03-29T07:29:10.500Z</time>
      </trkpt>
      <trkpt lat="45.05796" lon="5.23076">
        <ele>257.8</ele>
        <time>2026-03-29T07:29:18.000Z</time>
      </trkpt>
      <trkpt lat="45.05802" lon="5.23077">
        <ele>257.5</ele>
        <time>2026-03-29T07:29:25.500Z</time>
      </trkpt>
      <trkpt lat="45.05809" lon="5.23077">
        <ele>257.3</ele>
        <time>2026-03-29T07:29:33.000Z</time>
      </trkpt>
      <trkpt lat="45.05815" lon="5.23078">
        <ele>257.3</ele>
        <time>2026-03-29T07:29:40.500Z</time>
      </trkpt>
      <trkpt lat="45.05821" lon="5.23078">
        <ele>257.3</ele>
        <time>2026-03-29T07:29:48.000Z</time>
      </trkpt>
      <trkpt lat="45.05864" lon="5.23046">
        <ele>252.8</ele>
        <time>2026-03-29T07:30:18.000Z</time>
      </trkpt>
      <trkpt lat="45.05869" lon="5.23041">
        <ele>252</ele>
        <time>2026-03-29T07:30:21.750Z</time>
      </trkpt>
      <trkpt lat="45.05907" lon="5.23013">
        <ele>243.1</ele>
        <time>2026-03-29T07:30:48.000Z</time>
      </trkpt>
      <trkpt lat="45.05915" lon="5.2301">
        <ele>241.8</ele>
        <time>2026-03-29T07:30:55.500Z</time>
      </trkpt>
      <trkpt lat="45.05923" lon="5.23008">
        <ele>239.8</ele>
        <time>2026-03-29T07:31:03.000Z</time>
      </trkpt>
      <trkpt lat="45.0593" lon="5.23005">
        <ele>237.7</ele>
        <time>2026-03-29T07:31:10.500Z</time>
      </trkpt>
      <trkpt lat="45.05938" lon="5.23003">
        <ele>235.7</ele>
        <time>2026-03-29T07:31:18.000Z</time>
      </trkpt>
      <trkpt lat="45.05969" lon="5.22992">
        <ele>229.2</ele>
        <time>2026-03-29T07:31:48.000Z</time>
      </trkpt>
      <trkpt lat="45.05982" lon="5.22989">
        <ele>228.1</ele>
        <time>2026-03-29T07:32:03.000Z</time>
      </trkpt>
      <trkpt lat="45.05995" lon="5.22985">
        <ele>227</ele>
        <time>2026-03-29T07:32:18.000Z</time>
      </trkpt>
      <trkpt lat="45.06008" lon="5.22982">
        <ele>225.9</ele>
        <time>2026-03-29T07:32:33.000Z</time>
      </trkpt>
      <trkpt lat="45.06021" lon="5.22978">
        <ele>225.1</ele>
        <time>2026-03-29T07:32:48.000Z</time>
      </trkpt>
      <trkpt lat="45.06026" lon="5.2298">
        <ele>225.5</ele>
        <time>2026-03-29T07:32:51.750Z</time>
      </trkpt>
      <trkpt lat="45.0604" lon="5.22988">
        <ele>226.3</ele>
        <time>2026-03-29T07:33:03.000Z</time>
      </trkpt>
      <trkpt lat="45.0605" lon="5.22992">
        <ele>226.5</ele>
        <time>2026-03-29T07:33:10.500Z</time>
      </trkpt>
      <trkpt lat="45.06054" lon="5.22995">
        <ele>226.5</ele>
        <time>2026-03-29T07:33:14.250Z</time>
      </trkpt>
      <trkpt lat="45.06064" lon="5.22999">
        <ele>226.3</ele>
        <time>2026-03-29T07:33:21.750Z</time>
      </trkpt>
      <trkpt lat="45.06078" lon="5.23007">
        <ele>226.6</ele>
        <time>2026-03-29T07:33:33.000Z</time>
      </trkpt>
      <trkpt lat="45.06088" lon="5.23011">
        <ele>226.7</ele>
        <time>2026-03-29T07:33:40.500Z</time>
      </trkpt>
      <trkpt lat="45.06092" lon="5.23014">
        <ele>226.7</ele>
        <time>2026-03-29T07:33:44.250Z</time>
      </trkpt>
      <trkpt lat="45.06111" lon="5.23022">
        <ele>226.2</ele>
        <time>2026-03-29T07:33:59.250Z</time>
      </trkpt>
      <trkpt lat="45.0612" lon="5.23027">
        <ele>226.2</ele>
        <time>2026-03-29T07:34:06.750Z</time>
      </trkpt>
      <trkpt lat="45.06148" lon="5.23039">
        <ele>226.4</ele>
        <time>2026-03-29T07:34:29.250Z</time>
      </trkpt>
      <trkpt lat="45.06157" lon="5.23044">
        <ele>226.5</ele>
        <time>2026-03-29T07:34:36.750Z</time>
      </trkpt>
      <trkpt lat="45.06171" lon="5.2305">
        <ele>226.5</ele>
        <time>2026-03-29T07:34:48.000Z</time>
      </trkpt>
      <trkpt lat="45.06203" lon="5.23078">
        <ele>228.1</ele>
        <time>2026-03-29T07:35:48.000Z</time>
      </trkpt>
      <trkpt lat="45.06208" lon="5.23081">
        <ele>228</ele>
        <time>2026-03-29T07:35:51.750Z</time>
      </trkpt>
      <trkpt lat="45.06213" lon="5.23083">
        <ele>228</ele>
        <time>2026-03-29T07:35:55.500Z</time>
      </trkpt>
      <trkpt lat="45.06218" lon="5.23086">
        <ele>227.9</ele>
        <time>2026-03-29T07:35:59.250Z</time>
      </trkpt>
      <trkpt lat="45.06223" lon="5.23088">
        <ele>227.8</ele>
        <time>2026-03-29T07:36:03.000Z</time>
      </trkpt>
      <trkpt lat="45.06227" lon="5.23091">
        <ele>227.6</ele>
        <time>2026-03-29T07:36:06.750Z</time>
      </trkpt>
      <trkpt lat="45.06232" lon="5.23093">
        <ele>227.5</ele>
        <time>2026-03-29T07:36:10.500Z</time>
      </trkpt>
      <trkpt lat="45.06237" lon="5.23096">
        <ele>227.5</ele>
        <time>2026-03-29T07:36:14.250Z</time>
      </trkpt>
      <trkpt lat="45.06242" lon="5.23098">
        <ele>227.5</ele>
        <time>2026-03-29T07:36:18.000Z</time>
      </trkpt>
      <trkpt lat="45.06247" lon="5.23101">
        <ele>227.6</ele>
        <time>2026-03-29T07:36:21.750Z</time>
      </trkpt>
      <trkpt lat="45.06252" lon="5.23103">
        <ele>227.8</ele>
        <time>2026-03-29T07:36:25.500Z</time>
      </trkpt>
      <trkpt lat="45.06257" lon="5.23106">
        <ele>227.8</ele>
        <time>2026-03-29T07:36:29.250Z</time>
      </trkpt>
      <trkpt lat="45.06262" lon="5.23108">
        <ele>227.9</ele>
        <time>2026-03-29T07:36:33.000Z</time>
      </trkpt>
      <trkpt lat="45.06266" lon="5.23111">
        <ele>228.1</ele>
        <time>2026-03-29T07:36:36.750Z</time>
      </trkpt>
      <trkpt lat="45.06271" lon="5.23113">
        <ele>227.9</ele>
        <time>2026-03-29T07:36:40.500Z</time>
      </trkpt>
      <trkpt lat="45.06276" lon="5.23116">
        <ele>227.7</ele>
        <time>2026-03-29T07:36:44.250Z</time>
      </trkpt>
      <trkpt lat="45.06281" lon="5.23118">
        <ele>226.9</ele>
        <time>2026-03-29T07:36:48.000Z</time>
      </trkpt>
      <trkpt lat="45.06342" lon="5.23173">
        <ele>221.8</ele>
        <time>2026-03-29T07:37:48.000Z</time>
      </trkpt>
      <trkpt lat="45.06359" lon="5.23191">
        <ele>219.7</ele>
        <time>2026-03-29T07:38:03.000Z</time>
      </trkpt>
      <trkpt lat="45.06364" lon="5.23195">
        <ele>219.6</ele>
        <time>2026-03-29T07:38:06.750Z</time>
      </trkpt>
      <trkpt lat="45.06389" lon="5.23222">
        <ele>218.8</ele>
        <time>2026-03-29T07:38:29.250Z</time>
      </trkpt>
      <trkpt lat="45.06394" lon="5.23226">
        <ele>218</ele>
        <time>2026-03-29T07:38:33.000Z</time>
      </trkpt>
      <trkpt lat="45.06411" lon="5.23244">
        <ele>215</ele>
        <time>2026-03-29T07:38:48.000Z</time>
      </trkpt>
      <trkpt lat="45.06429" lon="5.23256">
        <ele>212.7</ele>
        <time>2026-03-29T07:39:03.000Z</time>
      </trkpt>
      <trkpt lat="45.06433" lon="5.23258">
        <ele>212.2</ele>
        <time>2026-03-29T07:39:06.750Z</time>
      </trkpt>
      <trkpt lat="45.06459" lon="5.23276">
        <ele>209.7</ele>
        <time>2026-03-29T07:39:29.250Z</time>
      </trkpt>
      <trkpt lat="45.06468" lon="5.23281">
        <ele>209</ele>
        <time>2026-03-29T07:39:36.750Z</time>
      </trkpt>
      <trkpt lat="45.06477" lon="5.23287">
        <ele>208</ele>
        <time>2026-03-29T07:39:44.250Z</time>
      </trkpt>
      <trkpt lat="45.06485" lon="5.23294">
        <ele>207.4</ele>
        <time>2026-03-29T07:40:04.500Z</time>
      </trkpt>
      <trkpt lat="45.06488" lon="5.23299">
        <ele>207.2</ele>
        <time>2026-03-29T07:40:21.000Z</time>
      </trkpt>
      <trkpt lat="45.06495" lon="5.23307">
        <ele>206.9</ele>
        <time>2026-03-29T07:40:54.000Z</time>
      </trkpt>
      <trkpt lat="45.06499" lon="5.23319">
        <ele>207.7</ele>
        <time>2026-03-29T07:41:01.500Z</time>
      </trkpt>
      <trkpt lat="45.065" lon="5.23325">
        <ele>208.1</ele>
        <time>2026-03-29T07:41:05.250Z</time>
      </trkpt>
      <trkpt lat="45.06508" lon="5.23349">
        <ele>208.9</ele>
        <time>2026-03-29T07:41:20.250Z</time>
      </trkpt>
      <trkpt lat="45.06511" lon="5.23362">
        <ele>209</ele>
        <time>2026-03-29T07:41:27.750Z</time>
      </trkpt>
      <trkpt lat="45.06519" lon="5.23386">
        <ele>208.8</ele>
        <time>2026-03-29T07:41:42.750Z</time>
      </trkpt>
      <trkpt lat="45.0652" lon="5.23392">
        <ele>208.7</ele>
        <time>2026-03-29T07:41:46.500Z</time>
      </trkpt>
      <trkpt lat="45.06529" lon="5.23417">
        <ele>207.8</ele>
        <time>2026-03-29T07:42:09.000Z</time>
      </trkpt>
      <trkpt lat="45.06535" lon="5.2343">
        <ele>207.3</ele>
        <time>2026-03-29T07:42:24.000Z</time>
      </trkpt>
      <trkpt lat="45.06537" lon="5.23437">
        <ele>207</ele>
        <time>2026-03-29T07:42:31.500Z</time>
      </trkpt>
      <trkpt lat="45.0654" lon="5.23443">
        <ele>206.8</ele>
        <time>2026-03-29T07:42:39.000Z</time>
      </trkpt>
      <trkpt lat="45.06542" lon="5.2345">
        <ele>206.4</ele>
        <time>2026-03-29T07:42:46.500Z</time>
      </trkpt>
      <trkpt lat="45.06545" lon="5.23456">
        <ele>206</ele>
        <time>2026-03-29T07:42:54.000Z</time>
      </trkpt>
      <trkpt lat="45.0654" lon="5.23461">
        <ele>207.2</ele>
        <time>2026-03-29T07:43:01.499Z</time>
      </trkpt>
      <trkpt lat="45.06536" lon="5.23467">
        <ele>208.5</ele>
        <time>2026-03-29T07:43:08.999Z</time>
      </trkpt>
      <trkpt lat="45.06507" lon="5.23499">
        <ele>218.2</ele>
        <time>2026-03-29T07:43:54.000Z</time>
      </trkpt>
      <trkpt lat="45.06506" lon="5.23506">
        <ele>219.5</ele>
        <time>2026-03-29T07:44:01.499Z</time>
      </trkpt>
      <trkpt lat="45.06506" lon="5.23512">
        <ele>221.1</ele>
        <time>2026-03-29T07:44:08.999Z</time>
      </trkpt>
      <trkpt lat="45.06505" lon="5.23519">
        <ele>222.7</ele>
        <time>2026-03-29T07:44:16.499Z</time>
      </trkpt>
      <trkpt lat="45.06505" lon="5.23526">
        <ele>224.5</ele>
        <time>2026-03-29T07:44:23.999Z</time>
      </trkpt>
      <trkpt lat="45.06503" lon="5.23539">
        <ele>226.4</ele>
        <time>2026-03-29T07:44:38.999Z</time>
      </trkpt>
      <trkpt lat="45.06503" lon="5.23545">
        <ele>227.4</ele>
        <time>2026-03-29T07:44:46.499Z</time>
      </trkpt>
      <trkpt lat="45.06502" lon="5.23552">
        <ele>228.3</ele>
        <time>2026-03-29T07:44:54.000Z</time>
      </trkpt>
      <trkpt lat="45.06498" lon="5.23559">
        <ele>230.8</ele>
        <time>2026-03-29T07:45:08.999Z</time>
      </trkpt>
      <trkpt lat="45.06495" lon="5.23566">
        <ele>232.2</ele>
        <time>2026-03-29T07:45:23.999Z</time>
      </trkpt>
      <trkpt lat="45.06487" lon="5.2358">
        <ele>234.6</ele>
        <time>2026-03-29T07:45:54.000Z</time>
      </trkpt>
      <trkpt lat="45.0648" lon="5.23583">
        <ele>238.6</ele>
        <time>2026-03-29T07:46:08.999Z</time>
      </trkpt>
      <trkpt lat="45.06458" lon="5.2359">
        <ele>246.4</ele>
        <time>2026-03-29T07:46:54.000Z</time>
      </trkpt>
      <trkpt lat="45.0645" lon="5.2359">
        <ele>249.1</ele>
        <time>2026-03-29T07:47:09.000Z</time>
      </trkpt>
      <trkpt lat="45.06442" lon="5.23591">
        <ele>251.9</ele>
        <time>2026-03-29T07:47:24.000Z</time>
      </trkpt>
      <trkpt lat="45.06426" lon="5.23591">
        <ele>257.7</ele>
        <time>2026-03-29T07:47:54.000Z</time>
      </trkpt>
      <trkpt lat="45.06421" lon="5.23594">
        <ele>258.4</ele>
        <time>2026-03-29T07:48:01.499Z</time>
      </trkpt>
      <trkpt lat="45.06416" lon="5.23598">
        <ele>259.1</ele>
        <time>2026-03-29T07:48:08.999Z</time>
      </trkpt>
      <trkpt lat="45.06411" lon="5.23601">
        <ele>260.2</ele>
        <time>2026-03-29T07:48:16.499Z</time>
      </trkpt>
      <trkpt lat="45.06407" lon="5.23605">
        <ele>261.6</ele>
        <time>2026-03-29T07:48:23.999Z</time>
      </trkpt>
      <trkpt lat="45.06397" lon="5.23611">
        <ele>264.7</ele>
        <time>2026-03-29T07:48:38.999Z</time>
      </trkpt>
      <trkpt lat="45.06392" lon="5.23615">
        <ele>266.8</ele>
        <time>2026-03-29T07:48:46.499Z</time>
      </trkpt>
      <trkpt lat="45.06387" lon="5.23618">
        <ele>268.9</ele>
        <time>2026-03-29T07:48:54.000Z</time>
      </trkpt>
      <trkpt lat="45.06382" lon="5.23628">
        <ele>270.1</ele>
        <time>2026-03-29T07:49:23.999Z</time>
      </trkpt>
      <trkpt lat="45.06376" lon="5.23638">
        <ele>271.2</ele>
        <time>2026-03-29T07:49:54.000Z</time>
      </trkpt>
      <trkpt lat="45.06377" lon="5.23638">
        <ele>270.7</ele>
        <time>2026-03-29T07:53:10.000Z</time>
      </trkpt>
      <trkpt lat="45.06373" lon="5.2364">
        <ele>272.3</ele>
        <time>2026-03-29T07:54:17.000Z</time>
      </trkpt>
      <trkpt lat="45.06351" lon="5.23656">
        <ele>277.8</ele>
        <time>2026-03-29T07:54:46.999Z</time>
      </trkpt>
      <trkpt lat="45.0634" lon="5.23663">
        <ele>279</ele>
        <time>2026-03-29T07:55:01.999Z</time>
      </trkpt>
      <trkpt lat="45.06329" lon="5.23671">
        <ele>280.6</ele>
        <time>2026-03-29T07:55:17.000Z</time>
      </trkpt>
      <trkpt lat="45.06297" lon="5.23643">
        <ele>289.4</ele>
        <time>2026-03-29T07:56:17.000Z</time>
      </trkpt>
      <trkpt lat="45.06285" lon="5.23631">
        <ele>294.3</ele>
        <time>2026-03-29T07:56:31.999Z</time>
      </trkpt>
      <trkpt lat="45.06274" lon="5.23618">
        <ele>299.4</ele>
        <time>2026-03-29T07:56:46.999Z</time>
      </trkpt>
      <trkpt lat="45.0625" lon="5.23593">
        <ele>309.9</ele>
        <time>2026-03-29T07:57:17.000Z</time>
      </trkpt>
      <trkpt lat="45.06225" lon="5.23593">
        <ele>316.8</ele>
        <time>2026-03-29T07:58:17.000Z</time>
      </trkpt>
      <trkpt lat="45.06218" lon="5.23592">
        <ele>318.5</ele>
        <time>2026-03-29T07:58:24.499Z</time>
      </trkpt>
      <trkpt lat="45.06212" lon="5.23592">
        <ele>320.1</ele>
        <time>2026-03-29T07:58:31.999Z</time>
      </trkpt>
      <trkpt lat="45.06191" lon="5.23589">
        <ele>324.4</ele>
        <time>2026-03-29T07:58:54.499Z</time>
      </trkpt>
      <trkpt lat="45.06185" lon="5.23589">
        <ele>324.7</ele>
        <time>2026-03-29T07:59:01.999Z</time>
      </trkpt>
      <trkpt lat="45.06171" lon="5.23587">
        <ele>325.3</ele>
        <time>2026-03-29T07:59:17.000Z</time>
      </trkpt>
      <trkpt lat="45.06163" lon="5.23585">
        <ele>326.8</ele>
        <time>2026-03-29T07:59:31.999Z</time>
      </trkpt>
      <trkpt lat="45.06155" lon="5.23582">
        <ele>328.4</ele>
        <time>2026-03-29T07:59:46.999Z</time>
      </trkpt>
      <trkpt lat="45.06147" lon="5.2358">
        <ele>329.7</ele>
        <time>2026-03-29T08:00:01.999Z</time>
      </trkpt>
      <trkpt lat="45.06139" lon="5.23577">
        <ele>330.8</ele>
        <time>2026-03-29T08:00:17.000Z</time>
      </trkpt>
      <trkpt lat="45.06136" lon="5.23575">
        <ele>332.3</ele>
        <time>2026-03-29T08:02:40.000Z</time>
      </trkpt>
      <trkpt lat="45.0612" lon="5.2353">
        <ele>349.3</ele>
        <time>2026-03-29T08:03:40.000Z</time>
      </trkpt>
      <trkpt lat="45.0612" lon="5.23522">
        <ele>351.2</ele>
        <time>2026-03-29T08:03:54.999Z</time>
      </trkpt>
      <trkpt lat="45.06119" lon="5.23513">
        <ele>352.7</ele>
        <time>2026-03-29T08:04:09.999Z</time>
      </trkpt>
      <trkpt lat="45.06119" lon="5.23505">
        <ele>354.2</ele>
        <time>2026-03-29T08:04:24.999Z</time>
      </trkpt>
      <trkpt lat="45.06118" lon="5.23496">
        <ele>355.6</ele>
        <time>2026-03-29T08:04:40.000Z</time>
      </trkpt>
      <trkpt lat="45.06115" lon="5.2349">
        <ele>356.5</ele>
        <time>2026-03-29T08:04:47.499Z</time>
      </trkpt>
      <trkpt lat="45.06108" lon="5.23471">
        <ele>360.2</ele>
        <time>2026-03-29T08:05:09.999Z</time>
      </trkpt>
      <trkpt lat="45.06102" lon="5.23459">
        <ele>363.4</ele>
        <time>2026-03-29T08:05:24.999Z</time>
      </trkpt>
      <trkpt lat="45.061" lon="5.23452">
        <ele>364.7</ele>
        <time>2026-03-29T08:05:32.499Z</time>
      </trkpt>
      <trkpt lat="45.06097" lon="5.23446">
        <ele>365.9</ele>
        <time>2026-03-29T08:05:40.000Z</time>
      </trkpt>
      <trkpt lat="45.06086" lon="5.23435">
        <ele>367</ele>
        <time>2026-03-29T08:06:44.000Z</time>
      </trkpt>
      <trkpt lat="45.06081" lon="5.23436">
        <ele>368.1</ele>
        <time>2026-03-29T08:06:51.500Z</time>
      </trkpt>
      <trkpt lat="45.06076" lon="5.23436">
        <ele>369.6</ele>
        <time>2026-03-29T08:06:59.000Z</time>
      </trkpt>
      <trkpt lat="45.0607" lon="5.23437">
        <ele>371.1</ele>
        <time>2026-03-29T08:07:06.500Z</time>
      </trkpt>
      <trkpt lat="45.06065" lon="5.23437">
        <ele>372.7</ele>
        <time>2026-03-29T08:07:14.000Z</time>
      </trkpt>
      <trkpt lat="45.0606" lon="5.23438">
        <ele>374.3</ele>
        <time>2026-03-29T08:07:21.500Z</time>
      </trkpt>
      <trkpt lat="45.06055" lon="5.23438">
        <ele>375.7</ele>
        <time>2026-03-29T08:07:29.000Z</time>
      </trkpt>
      <trkpt lat="45.06049" lon="5.23439">
        <ele>376.4</ele>
        <time>2026-03-29T08:07:36.500Z</time>
      </trkpt>
      <trkpt lat="45.06044" lon="5.23439">
        <ele>377</ele>
        <time>2026-03-29T08:07:44.000Z</time>
      </trkpt>
      <trkpt lat="45.06019" lon="5.23463">
        <ele>384</ele>
        <time>2026-03-29T08:08:44.000Z</time>
      </trkpt>
      <trkpt lat="45.06015" lon="5.23461">
        <ele>383.3</ele>
        <time>2026-03-29T08:10:24.000Z</time>
      </trkpt>
      <trkpt lat="45.06014" lon="5.23472">
        <ele>385.9</ele>
        <time>2026-03-29T08:10:38.999Z</time>
      </trkpt>
      <trkpt lat="45.06014" lon="5.23483">
        <ele>386.9</ele>
        <time>2026-03-29T08:10:53.999Z</time>
      </trkpt>
      <trkpt lat="45.06012" lon="5.23504">
        <ele>387.6</ele>
        <time>2026-03-29T08:11:24.000Z</time>
      </trkpt>
      <trkpt lat="45.06003" lon="5.23494">
        <ele>387.5</ele>
        <time>2026-03-29T08:12:37.000Z</time>
      </trkpt>
      <trkpt lat="45.05957" lon="5.23526">
        <ele>395.6</ele>
        <time>2026-03-29T08:13:37.000Z</time>
      </trkpt>
      <trkpt lat="45.05949" lon="5.23529">
        <ele>397.8</ele>
        <time>2026-03-29T08:13:44.499Z</time>
      </trkpt>
      <trkpt lat="45.05941" lon="5.23531">
        <ele>398.8</ele>
        <time>2026-03-29T08:13:51.999Z</time>
      </trkpt>
      <trkpt lat="45.05926" lon="5.23537">
        <ele>399</ele>
        <time>2026-03-29T08:14:06.999Z</time>
      </trkpt>
      <trkpt lat="45.05918" lon="5.23539">
        <ele>399.4</ele>
        <time>2026-03-29T08:14:14.499Z</time>
      </trkpt>
      <trkpt lat="45.0591" lon="5.23542">
        <ele>399.8</ele>
        <time>2026-03-29T08:14:21.999Z</time>
      </trkpt>
      <trkpt lat="45.05902" lon="5.23544">
        <ele>400.1</ele>
        <time>2026-03-29T08:14:29.499Z</time>
      </trkpt>
      <trkpt lat="45.05894" lon="5.23547">
        <ele>400.5</ele>
        <time>2026-03-29T08:14:37.000Z</time>
      </trkpt>
      <trkpt lat="45.05878" lon="5.23575">
        <ele>405.1</ele>
        <time>2026-03-29T08:15:21.999Z</time>
      </trkpt>
      <trkpt lat="45.05872" lon="5.23584">
        <ele>405.7</ele>
        <time>2026-03-29T08:15:37.000Z</time>
      </trkpt>
      <trkpt lat="45.05867" lon="5.23588">
        <ele>406.2</ele>
        <time>2026-03-29T08:16:07.999Z</time>
      </trkpt>
      <trkpt lat="45.05862" lon="5.23591">
        <ele>406.8</ele>
        <time>2026-03-29T08:16:38.999Z</time>
      </trkpt>
      <trkpt lat="45.05857" lon="5.23595">
        <ele>408.1</ele>
        <time>2026-03-29T08:17:09.999Z</time>
      </trkpt>
      <trkpt lat="45.05852" lon="5.23598">
        <ele>409.3</ele>
        <time>2026-03-29T08:17:41.000Z</time>
      </trkpt>
      <trkpt lat="45.05834" lon="5.23613">
        <ele>411.3</ele>
        <time>2026-03-29T08:18:03.499Z</time>
      </trkpt>
      <trkpt lat="45.05829" lon="5.23619">
        <ele>413.4</ele>
        <time>2026-03-29T08:18:10.999Z</time>
      </trkpt>
      <trkpt lat="45.05805" lon="5.23639">
        <ele>417.1</ele>
        <time>2026-03-29T08:18:41.000Z</time>
      </trkpt>
      <trkpt lat="45.05799" lon="5.23643">
        <ele>419.1</ele>
        <time>2026-03-29T08:18:48.499Z</time>
      </trkpt>
      <trkpt lat="45.05792" lon="5.23646">
        <ele>420.7</ele>
        <time>2026-03-29T08:18:55.999Z</time>
      </trkpt>
      <trkpt lat="45.05786" lon="5.2365">
        <ele>422</ele>
        <time>2026-03-29T08:19:03.499Z</time>
      </trkpt>
      <trkpt lat="45.05779" lon="5.23653">
        <ele>422.9</ele>
        <time>2026-03-29T08:19:10.999Z</time>
      </trkpt>
      <trkpt lat="45.05773" lon="5.23657">
        <ele>423.9</ele>
        <time>2026-03-29T08:19:18.499Z</time>
      </trkpt>
      <trkpt lat="45.05766" lon="5.2366">
        <ele>424.6</ele>
        <time>2026-03-29T08:19:25.999Z</time>
      </trkpt>
      <trkpt lat="45.0576" lon="5.23664">
        <ele>424.9</ele>
        <time>2026-03-29T08:19:33.499Z</time>
      </trkpt>
      <trkpt lat="45.05753" lon="5.23667">
        <ele>424.9</ele>
        <time>2026-03-29T08:19:41.000Z</time>
      </trkpt>
      <trkpt lat="45.05736" lon="5.2368">
        <ele>429.6</ele>
        <time>2026-03-29T08:20:10.999Z</time>
      </trkpt>
      <trkpt lat="45.05731" lon="5.23683">
        <ele>430.6</ele>
        <time>2026-03-29T08:20:18.499Z</time>
      </trkpt>
      <trkpt lat="45.05727" lon="5.23687">
        <ele>431.4</ele>
        <time>2026-03-29T08:20:25.999Z</time>
      </trkpt>
      <trkpt lat="45.05704" lon="5.23702">
        <ele>438.8</ele>
        <time>2026-03-29T08:21:39.999Z</time>
      </trkpt>
      <trkpt lat="45.05682" lon="5.23714">
        <ele>445.4</ele>
        <time>2026-03-29T08:23:08.499Z</time>
      </trkpt>
      <trkpt lat="45.05675" lon="5.23719">
        <ele>447.2</ele>
        <time>2026-03-29T08:23:37.999Z</time>
      </trkpt>
      <trkpt lat="45.05661" lon="5.23727">
        <ele>451.5</ele>
        <time>2026-03-29T08:24:37.000Z</time>
      </trkpt>
      <trkpt lat="45.0563" lon="5.23703">
        <ele>466.7</ele>
        <time>2026-03-29T08:25:37.000Z</time>
      </trkpt>
      <trkpt lat="45.05609" lon="5.23679">
        <ele>479.3</ele>
        <time>2026-03-29T08:26:37.000Z</time>
      </trkpt>
      <trkpt lat="45.05593" lon="5.23673">
        <ele>484.3</ele>
        <time>2026-03-29T08:27:37.000Z</time>
      </trkpt>
      <trkpt lat="45.05587" lon="5.23674">
        <ele>485.5</ele>
        <time>2026-03-29T08:30:20.000Z</time>
      </trkpt>
      <trkpt lat="45.05579" lon="5.23672">
        <ele>487</ele>
        <time>2026-03-29T08:30:34.999Z</time>
      </trkpt>
      <trkpt lat="45.05572" lon="5.23669">
        <ele>487.6</ele>
        <time>2026-03-29T08:30:49.999Z</time>
      </trkpt>
      <trkpt lat="45.05564" lon="5.23667">
        <ele>488</ele>
        <time>2026-03-29T08:31:04.999Z</time>
      </trkpt>
      <trkpt lat="45.05556" lon="5.23664">
        <ele>487.9</ele>
        <time>2026-03-29T08:31:20.000Z</time>
      </trkpt>
      <trkpt lat="45.05543" lon="5.23662">
        <ele>490.2</ele>
        <time>2026-03-29T08:32:33.000Z</time>
      </trkpt>
      <trkpt lat="45.05512" lon="5.2365">
        <ele>497.6</ele>
        <time>2026-03-29T08:33:33.000Z</time>
      </trkpt>
      <trkpt lat="45.05505" lon="5.23653">
        <ele>499.4</ele>
        <time>2026-03-29T08:33:47.999Z</time>
      </trkpt>
      <trkpt lat="45.05497" lon="5.23655">
        <ele>501.4</ele>
        <time>2026-03-29T08:34:02.999Z</time>
      </trkpt>
      <trkpt lat="45.0549" lon="5.23658">
        <ele>503.6</ele>
        <time>2026-03-29T08:34:17.999Z</time>
      </trkpt>
      <trkpt lat="45.05469" lon="5.23664">
        <ele>509.1</ele>
        <time>2026-03-29T08:37:15.000Z</time>
      </trkpt>
      <trkpt lat="45.05452" lon="5.23662">
        <ele>513.6</ele>
        <time>2026-03-29T08:38:15.000Z</time>
      </trkpt>
      <trkpt lat="45.05447" lon="5.23663">
        <ele>514.8</ele>
        <time>2026-03-29T08:38:32.750Z</time>
      </trkpt>
      <trkpt lat="45.05443" lon="5.23663">
        <ele>515.6</ele>
        <time>2026-03-29T08:38:50.500Z</time>
      </trkpt>
      <trkpt lat="45.05438" lon="5.23664">
        <ele>516.1</ele>
        <time>2026-03-29T08:39:08.250Z</time>
      </trkpt>
      <trkpt lat="45.05433" lon="5.23664">
        <ele>516.5</ele>
        <time>2026-03-29T08:39:26.000Z</time>
      </trkpt>
      <trkpt lat="45.05427" lon="5.23663">
        <ele>517.3</ele>
        <time>2026-03-29T08:39:40.999Z</time>
      </trkpt>
      <trkpt lat="45.05421" lon="5.23661">
        <ele>518.1</ele>
        <time>2026-03-29T08:39:55.999Z</time>
      </trkpt>
      <trkpt lat="45.05415" lon="5.2366">
        <ele>518.9</ele>
        <time>2026-03-29T08:40:10.999Z</time>
      </trkpt>
      <trkpt lat="45.05404" lon="5.23657">
        <ele>520.3</ele>
        <time>2026-03-29T08:40:33.499Z</time>
      </trkpt>
      <trkpt lat="45.05393" lon="5.23655">
        <ele>521.5</ele>
        <time>2026-03-29T08:40:48.499Z</time>
      </trkpt>
      <trkpt lat="45.05387" lon="5.23655">
        <ele>522</ele>
        <time>2026-03-29T08:40:55.999Z</time>
      </trkpt>
      <trkpt lat="45.05365" lon="5.23651">
        <ele>523.7</ele>
        <time>2026-03-29T08:41:26.000Z</time>
      </trkpt>
      <trkpt lat="45.05347" lon="5.23647">
        <ele>524.9</ele>
        <time>2026-03-29T08:41:55.999Z</time>
      </trkpt>
      <trkpt lat="45.05342" lon="5.23645">
        <ele>525.2</ele>
        <time>2026-03-29T08:42:03.499Z</time>
      </trkpt>
      <trkpt lat="45.05328" lon="5.23642">
        <ele>525.9</ele>
        <time>2026-03-29T08:42:26.000Z</time>
      </trkpt>
      <trkpt lat="45.05313" lon="5.23649">
        <ele>526.2</ele>
        <time>2026-03-29T08:42:55.999Z</time>
      </trkpt>
      <trkpt lat="45.05298" lon="5.23655">
        <ele>526.2</ele>
        <time>2026-03-29T08:43:26.000Z</time>
      </trkpt>
      <trkpt lat="45.05282" lon="5.23677">
        <ele>526</ele>
        <time>2026-03-29T08:44:10.999Z</time>
      </trkpt>
      <trkpt lat="45.05276" lon="5.23684">
        <ele>526</ele>
        <time>2026-03-29T08:44:26.000Z</time>
      </trkpt>
      <trkpt lat="45.05271" lon="5.23687">
        <ele>525.9</ele>
        <time>2026-03-29T08:44:33.499Z</time>
      </trkpt>
      <trkpt lat="45.05266" lon="5.23689">
        <ele>525.8</ele>
        <time>2026-03-29T08:44:40.999Z</time>
      </trkpt>
      <trkpt lat="45.05257" lon="5.23695">
        <ele>526</ele>
        <time>2026-03-29T08:44:55.999Z</time>
      </trkpt>
      <trkpt lat="45.05252" lon="5.23697">
        <ele>525.8</ele>
        <time>2026-03-29T08:45:03.499Z</time>
      </trkpt>
      <trkpt lat="45.05247" lon="5.237">
        <ele>525.4</ele>
        <time>2026-03-29T08:45:10.999Z</time>
      </trkpt>
      <trkpt lat="45.05242" lon="5.23702">
        <ele>524.8</ele>
        <time>2026-03-29T08:45:18.499Z</time>
      </trkpt>
      <trkpt lat="45.05237" lon="5.23705">
        <ele>524.1</ele>
        <time>2026-03-29T08:45:26.000Z</time>
      </trkpt>
      <trkpt lat="45.05231" lon="5.23707">
        <ele>523.4</ele>
        <time>2026-03-29T08:45:40.999Z</time>
      </trkpt>
      <trkpt lat="45.05225" lon="5.2371">
        <ele>522.6</ele>
        <time>2026-03-29T08:45:55.999Z</time>
      </trkpt>
      <trkpt lat="45.05212" lon="5.23714">
        <ele>520.4</ele>
        <time>2026-03-29T08:46:26.000Z</time>
      </trkpt>
      <trkpt lat="45.05207" lon="5.23713">
        <ele>519.7</ele>
        <time>2026-03-29T08:46:33.499Z</time>
      </trkpt>
      <trkpt lat="45.05202" lon="5.23713">
        <ele>519.1</ele>
        <time>2026-03-29T08:46:40.999Z</time>
      </trkpt>
      <trkpt lat="45.05197" lon="5.23712">
        <ele>518.5</ele>
        <time>2026-03-29T08:46:48.499Z</time>
      </trkpt>
      <trkpt lat="45.05192" lon="5.23712">
        <ele>518.5</ele>
        <time>2026-03-29T08:46:55.999Z</time>
      </trkpt>
      <trkpt lat="45.05182" lon="5.2371">
        <ele>519.7</ele>
        <time>2026-03-29T08:47:10.999Z</time>
      </trkpt>
      <trkpt lat="45.05177" lon="5.2371">
        <ele>520.3</ele>
        <time>2026-03-29T08:47:18.499Z</time>
      </trkpt>
      <trkpt lat="45.05155" lon="5.23706">
        <ele>524.9</ele>
        <time>2026-03-29T08:48:26.000Z</time>
      </trkpt>
      <trkpt lat="45.05152" lon="5.23701">
        <ele>526.5</ele>
        <time>2026-03-29T08:52:28.000Z</time>
      </trkpt>
      <trkpt lat="45.05113" lon="5.23701">
        <ele>533.1</ele>
        <time>2026-03-29T08:53:28.000Z</time>
      </trkpt>
      <trkpt lat="45.05076" lon="5.23725">
        <ele>532.1</ele>
        <time>2026-03-29T08:54:28.000Z</time>
      </trkpt>
      <trkpt lat="45.05025" lon="5.23717">
        <ele>534.1</ele>
        <time>2026-03-29T08:56:44.749Z</time>
      </trkpt>
      <trkpt lat="45.05021" lon="5.23717">
        <ele>534</ele>
        <time>2026-03-29T08:57:01.499Z</time>
      </trkpt>
      <trkpt lat="45.05011" lon="5.23715">
        <ele>533.8</ele>
        <time>2026-03-29T08:57:35.000Z</time>
      </trkpt>
      <trkpt lat="45.05006" lon="5.23716">
        <ele>533.6</ele>
        <time>2026-03-29T08:57:49.999Z</time>
      </trkpt>
      <trkpt lat="45.05002" lon="5.23718">
        <ele>533.4</ele>
        <time>2026-03-29T08:58:04.999Z</time>
      </trkpt>
      <trkpt lat="45.04992" lon="5.2372">
        <ele>533.2</ele>
        <time>2026-03-29T08:58:35.000Z</time>
      </trkpt>
      <trkpt lat="45.0499" lon="5.23718">
        <ele>533.4</ele>
        <time>2026-03-29T09:00:14.000Z</time>
      </trkpt>
      <trkpt lat="45.04973" lon="5.23723">
        <ele>532.6</ele>
        <time>2026-03-29T09:02:47.000Z</time>
      </trkpt>
      <trkpt lat="45.04968" lon="5.23722">
        <ele>532.5</ele>
        <time>2026-03-29T09:02:54.499Z</time>
      </trkpt>
      <trkpt lat="45.04964" lon="5.23722">
        <ele>532.2</ele>
        <time>2026-03-29T09:03:01.999Z</time>
      </trkpt>
      <trkpt lat="45.04959" lon="5.23721">
        <ele>531.8</ele>
        <time>2026-03-29T09:03:09.499Z</time>
      </trkpt>
      <trkpt lat="45.04955" lon="5.23721">
        <ele>531.4</ele>
        <time>2026-03-29T09:03:16.999Z</time>
      </trkpt>
      <trkpt lat="45.04945" lon="5.23719">
        <ele>530.8</ele>
        <time>2026-03-29T09:03:31.999Z</time>
      </trkpt>
      <trkpt lat="45.04941" lon="5.23719">
        <ele>530.5</ele>
        <time>2026-03-29T09:03:39.499Z</time>
      </trkpt>
      <trkpt lat="45.0493" lon="5.23717">
        <ele>529.7</ele>
        <time>2026-03-29T09:04:01.999Z</time>
      </trkpt>
      <trkpt lat="45.04923" lon="5.23717">
        <ele>529.3</ele>
        <time>2026-03-29T09:04:16.999Z</time>
      </trkpt>
      <trkpt lat="45.0491" lon="5.23715">
        <ele>528.5</ele>
        <time>2026-03-29T09:04:47.000Z</time>
      </trkpt>
      <trkpt lat="45.04905" lon="5.23706">
        <ele>530.5</ele>
        <time>2026-03-29T09:05:16.999Z</time>
      </trkpt>
      <trkpt lat="45.04899" lon="5.23697">
        <ele>532.4</ele>
        <time>2026-03-29T09:05:47.000Z</time>
      </trkpt>
      <trkpt lat="45.04887" lon="5.2367">
        <ele>537.3</ele>
        <time>2026-03-29T09:06:47.000Z</time>
      </trkpt>
      <trkpt lat="45.04891" lon="5.23668">
        <ele>537.7</ele>
        <time>2026-03-29T09:09:03.000Z</time>
      </trkpt>
      <trkpt lat="45.04892" lon="5.23666">
        <ele>538.1</ele>
        <time>2026-03-29T09:13:47.000Z</time>
      </trkpt>
      <trkpt lat="45.04898" lon="5.23659">
        <ele>539.2</ele>
        <time>2026-03-29T09:14:19.500Z</time>
      </trkpt>
      <trkpt lat="45.04903" lon="5.23651">
        <ele>540</ele>
        <time>2026-03-29T09:14:52.000Z</time>
      </trkpt>
      <trkpt lat="45.04963" lon="5.23627">
        <ele>534.6</ele>
        <time>2026-03-29T09:15:52.000Z</time>
      </trkpt>
      <trkpt lat="45.04971" lon="5.23625">
        <ele>533.2</ele>
        <time>2026-03-29T09:15:59.500Z</time>
      </trkpt>
      <trkpt lat="45.04978" lon="5.23622">
        <ele>531.5</ele>
        <time>2026-03-29T09:16:07.000Z</time>
      </trkpt>
      <trkpt lat="45.04986" lon="5.2362">
        <ele>529.6</ele>
        <time>2026-03-29T09:16:14.500Z</time>
      </trkpt>
      <trkpt lat="45.05024" lon="5.23607">
        <ele>519</ele>
        <time>2026-03-29T09:16:52.000Z</time>
      </trkpt>
      <trkpt lat="45.05029" lon="5.23601">
        <ele>516.7</ele>
        <time>2026-03-29T09:16:59.500Z</time>
      </trkpt>
      <trkpt lat="45.05033" lon="5.23595">
        <ele>514.3</ele>
        <time>2026-03-29T09:17:07.000Z</time>
      </trkpt>
      <trkpt lat="45.05043" lon="5.23584">
        <ele>509.3</ele>
        <time>2026-03-29T09:17:22.000Z</time>
      </trkpt>
      <trkpt lat="45.05047" lon="5.23578">
        <ele>506.8</ele>
        <time>2026-03-29T09:17:29.500Z</time>
      </trkpt>
      <trkpt lat="45.05052" lon="5.23572">
        <ele>504.2</ele>
        <time>2026-03-29T09:17:37.000Z</time>
      </trkpt>
      <trkpt lat="45.05056" lon="5.23566">
        <ele>501.5</ele>
        <time>2026-03-29T09:17:44.500Z</time>
      </trkpt>
      <trkpt lat="45.05061" lon="5.2356">
        <ele>499</ele>
        <time>2026-03-29T09:17:52.000Z</time>
      </trkpt>
      <trkpt lat="45.05073" lon="5.23542">
        <ele>491.5</ele>
        <time>2026-03-29T09:18:22.000Z</time>
      </trkpt>
      <trkpt lat="45.05078" lon="5.23533">
        <ele>487.3</ele>
        <time>2026-03-29T09:18:37.000Z</time>
      </trkpt>
      <trkpt lat="45.05084" lon="5.23524">
        <ele>482.6</ele>
        <time>2026-03-29T09:18:52.000Z</time>
      </trkpt>
      <trkpt lat="45.05085" lon="5.23514">
        <ele>479</ele>
        <time>2026-03-29T09:19:07.000Z</time>
      </trkpt>
      <trkpt lat="45.05087" lon="5.23504">
        <ele>475.4</ele>
        <time>2026-03-29T09:19:22.000Z</time>
      </trkpt>
      <trkpt lat="45.05089" lon="5.23483">
        <ele>467.9</ele>
        <time>2026-03-29T09:19:52.000Z</time>
      </trkpt>
      <trkpt lat="45.05086" lon="5.23477">
        <ele>466.7</ele>
        <time>2026-03-29T09:19:59.499Z</time>
      </trkpt>
      <trkpt lat="45.05084" lon="5.23471">
        <ele>465.7</ele>
        <time>2026-03-29T09:20:06.999Z</time>
      </trkpt>
      <trkpt lat="45.05075" lon="5.23454">
        <ele>465</ele>
        <time>2026-03-29T09:20:29.499Z</time>
      </trkpt>
      <trkpt lat="45.05073" lon="5.23448">
        <ele>464.8</ele>
        <time>2026-03-29T09:20:36.999Z</time>
      </trkpt>
      <trkpt lat="45.05067" lon="5.23436">
        <ele>464.7</ele>
        <time>2026-03-29T09:20:52.000Z</time>
      </trkpt>
      <trkpt lat="45.0504" lon="5.23405">
        <ele>471.9</ele>
        <time>2026-03-29T09:21:52.000Z</time>
      </trkpt>
      <trkpt lat="45.04995" lon="5.23332">
        <ele>477.2</ele>
        <time>2026-03-29T09:24:00.000Z</time>
      </trkpt>
      <trkpt lat="45.04968" lon="5.23312">
        <ele>484.6</ele>
        <time>2026-03-29T09:24:29.999Z</time>
      </trkpt>
      <trkpt lat="45.04955" lon="5.23301">
        <ele>487.3</ele>
        <time>2026-03-29T09:24:44.999Z</time>
      </trkpt>
      <trkpt lat="45.04941" lon="5.23291">
        <ele>489.6</ele>
        <time>2026-03-29T09:25:00.000Z</time>
      </trkpt>
      <trkpt lat="45.04936" lon="5.2329">
        <ele>490.9</ele>
        <time>2026-03-29T09:25:07.499Z</time>
      </trkpt>
      <trkpt lat="45.04932" lon="5.23288">
        <ele>492.2</ele>
        <time>2026-03-29T09:25:14.999Z</time>
      </trkpt>
      <trkpt lat="45.04923" lon="5.23286">
        <ele>495</ele>
        <time>2026-03-29T09:25:29.999Z</time>
      </trkpt>
      <trkpt lat="45.04918" lon="5.23284">
        <ele>496.3</ele>
        <time>2026-03-29T09:25:37.499Z</time>
      </trkpt>
      <trkpt lat="45.04913" lon="5.23283">
        <ele>497.6</ele>
        <time>2026-03-29T09:25:44.999Z</time>
      </trkpt>
      <trkpt lat="45.04909" lon="5.23281">
        <ele>498.9</ele>
        <time>2026-03-29T09:25:52.499Z</time>
      </trkpt>
      <trkpt lat="45.04904" lon="5.2328">
        <ele>500.1</ele>
        <time>2026-03-29T09:26:00.000Z</time>
      </trkpt>
      <trkpt lat="45.04887" lon="5.23253">
        <ele>500.4</ele>
        <time>2026-03-29T09:27:00.000Z</time>
      </trkpt>
      <trkpt lat="45.04864" lon="5.23226">
        <ele>504.4</ele>
        <time>2026-03-29T09:28:00.000Z</time>
      </trkpt>
      <trkpt lat="45.04846" lon="5.2321">
        <ele>507.8</ele>
        <time>2026-03-29T09:28:29.999Z</time>
      </trkpt>
      <trkpt lat="45.04842" lon="5.23205">
        <ele>508.5</ele>
        <time>2026-03-29T09:28:37.499Z</time>
      </trkpt>
      <trkpt lat="45.04823" lon="5.23189">
        <ele>511.5</ele>
        <time>2026-03-29T09:29:07.499Z</time>
      </trkpt>
      <trkpt lat="45.04817" lon="5.23186">
        <ele>512.6</ele>
        <time>2026-03-29T09:29:14.999Z</time>
      </trkpt>
      <trkpt lat="45.04812" lon="5.23182">
        <ele>513.7</ele>
        <time>2026-03-29T09:29:22.499Z</time>
      </trkpt>
      <trkpt lat="45.04806" lon="5.23179">
        <ele>514.8</ele>
        <time>2026-03-29T09:29:29.999Z</time>
      </trkpt>
      <trkpt lat="45.04795" lon="5.23171">
        <ele>517</ele>
        <time>2026-03-29T09:29:44.999Z</time>
      </trkpt>
      <trkpt lat="45.04784" lon="5.23164">
        <ele>518.9</ele>
        <time>2026-03-29T09:30:00.000Z</time>
      </trkpt>
      <trkpt lat="45.04765" lon="5.23148">
        <ele>521</ele>
        <time>2026-03-29T09:30:29.999Z</time>
      </trkpt>
      <trkpt lat="45.04756" lon="5.23139">
        <ele>522.7</ele>
        <time>2026-03-29T09:30:44.999Z</time>
      </trkpt>
      <trkpt lat="45.04746" lon="5.23131">
        <ele>523.8</ele>
        <time>2026-03-29T09:31:00.000Z</time>
      </trkpt>
      <trkpt lat="45.04701" lon="5.23091">
        <ele>528</ele>
        <time>2026-03-29T09:32:00.000Z</time>
      </trkpt>
      <trkpt lat="45.04696" lon="5.23089">
        <ele>529.7</ele>
        <time>2026-03-29T09:32:14.999Z</time>
      </trkpt>
      <trkpt lat="45.0469" lon="5.23088">
        <ele>531.2</ele>
        <time>2026-03-29T09:32:29.999Z</time>
      </trkpt>
      <trkpt lat="45.04679" lon="5.23084">
        <ele>534.3</ele>
        <time>2026-03-29T09:33:00.000Z</time>
      </trkpt>
      <trkpt lat="45.04671" lon="5.23084">
        <ele>537.3</ele>
        <time>2026-03-29T09:33:15.000Z</time>
      </trkpt>
      <trkpt lat="45.04664" lon="5.23083">
        <ele>540</ele>
        <time>2026-03-29T09:33:30.000Z</time>
      </trkpt>
      <trkpt lat="45.04656" lon="5.23083">
        <ele>542.6</ele>
        <time>2026-03-29T09:33:45.000Z</time>
      </trkpt>
      <trkpt lat="45.04648" lon="5.23082">
        <ele>545.3</ele>
        <time>2026-03-29T09:34:00.000Z</time>
      </trkpt>
      <trkpt lat="45.04618" lon="5.23082">
        <ele>556.1</ele>
        <time>2026-03-29T09:36:51.000Z</time>
      </trkpt>
      <trkpt lat="45.0461" lon="5.23084">
        <ele>559.3</ele>
        <time>2026-03-29T09:37:05.999Z</time>
      </trkpt>
      <trkpt lat="45.04603" lon="5.23085">
        <ele>562.6</ele>
        <time>2026-03-29T09:37:20.999Z</time>
      </trkpt>
      <trkpt lat="45.04595" lon="5.23087">
        <ele>565.8</ele>
        <time>2026-03-29T09:37:35.999Z</time>
      </trkpt>
      <trkpt lat="45.04587" lon="5.23088">
        <ele>568.9</ele>
        <time>2026-03-29T09:37:51.000Z</time>
      </trkpt>
      <trkpt lat="45.04581" lon="5.23091">
        <ele>571.7</ele>
        <time>2026-03-29T09:38:05.999Z</time>
      </trkpt>
      <trkpt lat="45.04576" lon="5.23095">
        <ele>574.5</ele>
        <time>2026-03-29T09:38:20.999Z</time>
      </trkpt>
      <trkpt lat="45.04564" lon="5.23101">
        <ele>580.2</ele>
        <time>2026-03-29T09:38:51.000Z</time>
      </trkpt>
      <trkpt lat="45.04562" lon="5.23097">
        <ele>579.7</ele>
        <time>2026-03-29T09:40:18.000Z</time>
      </trkpt>
      <trkpt lat="45.04546" lon="5.2312">
        <ele>591.1</ele>
        <time>2026-03-29T09:41:18.000Z</time>
      </trkpt>
      <trkpt lat="45.04538" lon="5.2312">
        <ele>593.7</ele>
        <time>2026-03-29T09:41:48.000Z</time>
      </trkpt>
      <trkpt lat="45.04526" lon="5.23119">
        <ele>597.8</ele>
        <time>2026-03-29T09:42:33.000Z</time>
      </trkpt>
      <trkpt lat="45.04512" lon="5.23119">
        <ele>602.5</ele>
        <time>2026-03-29T09:43:18.000Z</time>
      </trkpt>
      <trkpt lat="45.04509" lon="5.23127">
        <ele>605.4</ele>
        <time>2026-03-29T09:43:50.499Z</time>
      </trkpt>
      <trkpt lat="45.045" lon="5.23144">
        <ele>612.1</ele>
        <time>2026-03-29T09:45:23.000Z</time>
      </trkpt>
      <trkpt lat="45.04498" lon="5.23151">
        <ele>614.5</ele>
        <time>2026-03-29T09:46:21.499Z</time>
      </trkpt>
      <trkpt lat="45.04495" lon="5.23157">
        <ele>616.8</ele>
        <time>2026-03-29T09:47:20.000Z</time>
      </trkpt>
      <trkpt lat="45.0449" lon="5.23154">
        <ele>618.1</ele>
        <time>2026-03-29T09:47:34.999Z</time>
      </trkpt>
      <trkpt lat="45.04485" lon="5.23152">
        <ele>619.4</ele>
        <time>2026-03-29T09:47:49.999Z</time>
      </trkpt>
      <trkpt lat="45.04475" lon="5.23146">
        <ele>622.2</ele>
        <time>2026-03-29T09:48:20.000Z</time>
      </trkpt>
      <trkpt lat="45.04471" lon="5.2314">
        <ele>622.5</ele>
        <time>2026-03-29T09:48:27.499Z</time>
      </trkpt>
      <trkpt lat="45.04468" lon="5.23134">
        <ele>622.8</ele>
        <time>2026-03-29T09:48:34.999Z</time>
      </trkpt>
      <trkpt lat="45.04453" lon="5.23111">
        <ele>623.4</ele>
        <time>2026-03-29T09:49:04.999Z</time>
      </trkpt>
      <trkpt lat="45.0445" lon="5.23105">
        <ele>623.4</ele>
        <time>2026-03-29T09:49:12.499Z</time>
      </trkpt>
      <trkpt lat="45.04446" lon="5.23099">
        <ele>623.3</ele>
        <time>2026-03-29T09:49:20.000Z</time>
      </trkpt>
      <trkpt lat="45.0444" lon="5.23093">
        <ele>624.5</ele>
        <time>2026-03-29T09:49:27.499Z</time>
      </trkpt>
      <trkpt lat="45.04433" lon="5.23088">
        <ele>625.5</ele>
        <time>2026-03-29T09:49:34.999Z</time>
      </trkpt>
      <trkpt lat="45.04408" lon="5.23065">
        <ele>628.8</ele>
        <time>2026-03-29T09:50:04.999Z</time>
      </trkpt>
      <trkpt lat="45.04401" lon="5.2306">
        <ele>629.2</ele>
        <time>2026-03-29T09:50:12.499Z</time>
      </trkpt>
      <trkpt lat="45.04395" lon="5.23054">
        <ele>629.5</ele>
        <time>2026-03-29T09:50:20.000Z</time>
      </trkpt>
      <trkpt lat="45.04338" lon="5.23029">
        <ele>631</ele>
        <time>2026-03-29T09:51:20.000Z</time>
      </trkpt>
      <trkpt lat="45.04305" lon="5.23025">
        <ele>631.8</ele>
        <time>2026-03-29T09:52:20.000Z</time>
      </trkpt>
      <trkpt lat="45.043" lon="5.23029">
        <ele>633.3</ele>
        <time>2026-03-29T09:52:27.499Z</time>
      </trkpt>
      <trkpt lat="45.04284" lon="5.23039">
        <ele>638.6</ele>
        <time>2026-03-29T09:52:49.999Z</time>
      </trkpt>
      <trkpt lat="45.04279" lon="5.23043">
        <ele>640.4</ele>
        <time>2026-03-29T09:52:57.499Z</time>
      </trkpt>
      <trkpt lat="45.04256" lon="5.23057">
        <ele>645.9</ele>
        <time>2026-03-29T09:53:27.499Z</time>
      </trkpt>
      <trkpt lat="45.0423" lon="5.23071">
        <ele>651.4</ele>
        <time>2026-03-29T09:53:57.499Z</time>
      </trkpt>
      <trkpt lat="45.04223" lon="5.23074">
        <ele>652.7</ele>
        <time>2026-03-29T09:54:04.999Z</time>
      </trkpt>
      <trkpt lat="45.04217" lon="5.23078">
        <ele>654.1</ele>
        <time>2026-03-29T09:54:12.499Z</time>
      </trkpt>
      <trkpt lat="45.04205" lon="5.23083">
        <ele>656</ele>
        <time>2026-03-29T09:54:27.499Z</time>
      </trkpt>
      <trkpt lat="45.04199" lon="5.23084">
        <ele>656.6</ele>
        <time>2026-03-29T09:54:34.999Z</time>
      </trkpt>
      <trkpt lat="45.04189" lon="5.23088">
        <ele>658.1</ele>
        <time>2026-03-29T09:54:49.999Z</time>
      </trkpt>
      <trkpt lat="45.04183" lon="5.23089">
        <ele>658.9</ele>
        <time>2026-03-29T09:54:57.499Z</time>
      </trkpt>
      <trkpt lat="45.04178" lon="5.23091">
        <ele>659.8</ele>
        <time>2026-03-29T09:55:04.999Z</time>
      </trkpt>
      <trkpt lat="45.04172" lon="5.23092">
        <ele>660.6</ele>
        <time>2026-03-29T09:55:12.499Z</time>
      </trkpt>
      <trkpt lat="45.04167" lon="5.23094">
        <ele>661.4</ele>
        <time>2026-03-29T09:55:20.000Z</time>
      </trkpt>
      <trkpt lat="45.04136" lon="5.23099">
        <ele>664.3</ele>
        <time>2026-03-29T09:56:27.499Z</time>
      </trkpt>
      <trkpt lat="45.04129" lon="5.23101">
        <ele>665.5</ele>
        <time>2026-03-29T09:56:34.999Z</time>
      </trkpt>
      <trkpt lat="45.04122" lon="5.23102">
        <ele>666.7</ele>
        <time>2026-03-29T09:56:42.499Z</time>
      </trkpt>
      <trkpt lat="45.04115" lon="5.23104">
        <ele>667.9</ele>
        <time>2026-03-29T09:56:49.999Z</time>
      </trkpt>
      <trkpt lat="45.041" lon="5.23106">
        <ele>670.8</ele>
        <time>2026-03-29T09:57:04.999Z</time>
      </trkpt>
      <trkpt lat="45.04093" lon="5.23108">
        <ele>672.3</ele>
        <time>2026-03-29T09:57:12.499Z</time>
      </trkpt>
      <trkpt lat="45.04086" lon="5.23109">
        <ele>673.7</ele>
        <time>2026-03-29T09:57:20.000Z</time>
      </trkpt>
      <trkpt lat="45.04081" lon="5.23108">
        <ele>674.1</ele>
        <time>2026-03-29T09:57:27.499Z</time>
      </trkpt>
      <trkpt lat="45.04076" lon="5.23108">
        <ele>674.5</ele>
        <time>2026-03-29T09:57:34.999Z</time>
      </trkpt>
      <trkpt lat="45.04071" lon="5.23107">
        <ele>675</ele>
        <time>2026-03-29T09:57:42.499Z</time>
      </trkpt>
      <trkpt lat="45.04066" lon="5.23107">
        <ele>675.5</ele>
        <time>2026-03-29T09:57:49.999Z</time>
      </trkpt>
      <trkpt lat="45.04055" lon="5.23105">
        <ele>676.5</ele>
        <time>2026-03-29T09:58:04.999Z</time>
      </trkpt>
      <trkpt lat="45.0405" lon="5.23105">
        <ele>677.3</ele>
        <time>2026-03-29T09:58:12.499Z</time>
      </trkpt>
      <trkpt lat="45.04045" lon="5.23104">
        <ele>678</ele>
        <time>2026-03-29T09:58:20.000Z</time>
      </trkpt>
      <trkpt lat="45.04038" lon="5.23101">
        <ele>678.1</ele>
        <time>2026-03-29T09:58:27.499Z</time>
      </trkpt>
      <trkpt lat="45.04031" lon="5.23097">
        <ele>678.3</ele>
        <time>2026-03-29T09:58:34.999Z</time>
      </trkpt>
      <trkpt lat="45.04017" lon="5.23091">
        <ele>678.8</ele>
        <time>2026-03-29T09:58:49.999Z</time>
      </trkpt>
      <trkpt lat="45.0401" lon="5.23087">
        <ele>679.1</ele>
        <time>2026-03-29T09:58:57.499Z</time>
      </trkpt>
      <trkpt lat="45.04003" lon="5.23084">
        <ele>679.5</ele>
        <time>2026-03-29T09:59:04.999Z</time>
      </trkpt>
      <trkpt lat="45.03996" lon="5.2308">
        <ele>680</ele>
        <time>2026-03-29T09:59:12.499Z</time>
      </trkpt>
      <trkpt lat="45.03989" lon="5.23077">
        <ele>680.7</ele>
        <time>2026-03-29T09:59:20.000Z</time>
      </trkpt>
      <trkpt lat="45.03976" lon="5.23083">
        <ele>685.1</ele>
        <time>2026-03-29T10:00:20.000Z</time>
      </trkpt>
      <trkpt lat="45.03958" lon="5.23087">
        <ele>689.3</ele>
        <time>2026-03-29T10:01:20.000Z</time>
      </trkpt>
      <trkpt lat="45.03952" lon="5.23107">
        <ele>694.4</ele>
        <time>2026-03-29T10:02:30.000Z</time>
      </trkpt>
      <trkpt lat="45.03948" lon="5.23134">
        <ele>700.7</ele>
        <time>2026-03-29T10:03:50.000Z</time>
      </trkpt>
      <trkpt lat="45.03948" lon="5.23141">
        <ele>702</ele>
        <time>2026-03-29T10:04:05.000Z</time>
      </trkpt>
      <trkpt lat="45.03949" lon="5.23147">
        <ele>703</ele>
        <time>2026-03-29T10:04:20.000Z</time>
      </trkpt>
      <trkpt lat="45.03949" lon="5.2316">
        <ele>705</ele>
        <time>2026-03-29T10:04:50.000Z</time>
      </trkpt>
      <trkpt lat="45.03952" lon="5.23186">
        <ele>709</ele>
        <time>2026-03-29T10:05:12.500Z</time>
      </trkpt>
      <trkpt lat="45.03954" lon="5.23195">
        <ele>710.3</ele>
        <time>2026-03-29T10:05:20.000Z</time>
      </trkpt>
      <trkpt lat="45.03958" lon="5.23229">
        <ele>713</ele>
        <time>2026-03-29T10:05:50.000Z</time>
      </trkpt>
      <trkpt lat="45.03954" lon="5.23267">
        <ele>711.3</ele>
        <time>2026-03-29T10:06:50.000Z</time>
      </trkpt>
      <trkpt lat="45.03948" lon="5.23262">
        <ele>711.4</ele>
        <time>2026-03-29T10:06:57.499Z</time>
      </trkpt>
      <trkpt lat="45.03943" lon="5.23256">
        <ele>711.8</ele>
        <time>2026-03-29T10:07:04.999Z</time>
      </trkpt>
      <trkpt lat="45.0392" lon="5.23235">
        <ele>713.7</ele>
        <time>2026-03-29T10:07:34.999Z</time>
      </trkpt>
      <trkpt lat="45.03915" lon="5.23229">
        <ele>713.7</ele>
        <time>2026-03-29T10:07:42.499Z</time>
      </trkpt>
      <trkpt lat="45.03909" lon="5.23224">
        <ele>713.7</ele>
        <time>2026-03-29T10:07:50.000Z</time>
      </trkpt>
      <trkpt lat="45.03893" lon="5.23186">
        <ele>709.7</ele>
        <time>2026-03-29T10:08:50.000Z</time>
      </trkpt>
      <trkpt lat="45.03915" lon="5.23176">
        <ele>708</ele>
        <time>2026-03-29T10:09:35.000Z</time>
      </trkpt>
      <trkpt lat="45.03922" lon="5.23172">
        <ele>707.4</ele>
        <time>2026-03-29T10:09:50.000Z</time>
      </trkpt>
      <trkpt lat="45.03923" lon="5.23164">
        <ele>706.3</ele>
        <time>2026-03-29T10:09:57.500Z</time>
      </trkpt>
      <trkpt lat="45.03925" lon="5.23156">
        <ele>705.1</ele>
        <time>2026-03-29T10:10:05.000Z</time>
      </trkpt>
      <trkpt lat="45.03926" lon="5.23147">
        <ele>703.9</ele>
        <time>2026-03-29T10:10:12.500Z</time>
      </trkpt>
      <trkpt lat="45.03928" lon="5.23139">
        <ele>702.6</ele>
        <time>2026-03-29T10:10:20.000Z</time>
      </trkpt>
      <trkpt lat="45.0393" lon="5.23123">
        <ele>699.3</ele>
        <time>2026-03-29T10:10:35.000Z</time>
      </trkpt>
      <trkpt lat="45.03932" lon="5.23114">
        <ele>697.6</ele>
        <time>2026-03-29T10:10:42.500Z</time>
      </trkpt>
      <trkpt lat="45.03933" lon="5.23106">
        <ele>696.1</ele>
        <time>2026-03-29T10:10:50.000Z</time>
      </trkpt>
      <trkpt lat="45.03947" lon="5.23098">
        <ele>693.1</ele>
        <time>2026-03-29T10:11:05.000Z</time>
      </trkpt>
      <trkpt lat="45.03954" lon="5.23093">
        <ele>691.3</ele>
        <time>2026-03-29T10:11:12.500Z</time>
      </trkpt>
      <trkpt lat="45.03976" lon="5.23081">
        <ele>684.6</ele>
        <time>2026-03-29T10:11:35.000Z</time>
      </trkpt>
      <trkpt lat="45.03983" lon="5.23076">
        <ele>682</ele>
        <time>2026-03-29T10:11:42.500Z</time>
      </trkpt>
      <trkpt lat="45.0399" lon="5.23072">
        <ele>679.2</ele>
        <time>2026-03-29T10:11:50.000Z</time>
      </trkpt>
      <trkpt lat="45.04004" lon="5.23078">
        <ele>677.7</ele>
        <time>2026-03-29T10:12:12.500Z</time>
      </trkpt>
      <trkpt lat="45.04013" lon="5.23083">
        <ele>676.9</ele>
        <time>2026-03-29T10:12:27.500Z</time>
      </trkpt>
      <trkpt lat="45.04027" lon="5.23089">
        <ele>676.2</ele>
        <time>2026-03-29T10:12:50.000Z</time>
      </trkpt>
      <trkpt lat="45.04029" lon="5.23083">
        <ele>673.6</ele>
        <time>2026-03-29T10:13:05.000Z</time>
      </trkpt>
      <trkpt lat="45.04032" lon="5.2307">
        <ele>668.3</ele>
        <time>2026-03-29T10:13:35.000Z</time>
      </trkpt>
      <trkpt lat="45.04035" lon="5.23053">
        <ele>661.1</ele>
        <time>2026-03-29T10:14:22.000Z</time>
      </trkpt>
      <trkpt lat="45.04036" lon="5.23041">
        <ele>656.9</ele>
        <time>2026-03-29T10:14:54.000Z</time>
      </trkpt>
      <trkpt lat="45.04034" lon="5.23021">
        <ele>652.4</ele>
        <time>2026-03-29T10:15:23.999Z</time>
      </trkpt>
      <trkpt lat="45.04032" lon="5.2301">
        <ele>651.4</ele>
        <time>2026-03-29T10:15:38.999Z</time>
      </trkpt>
      <trkpt lat="45.04031" lon="5.23">
        <ele>650.6</ele>
        <time>2026-03-29T10:15:54.000Z</time>
      </trkpt>
      <trkpt lat="45.04033" lon="5.22994">
        <ele>649.8</ele>
        <time>2026-03-29T10:16:01.500Z</time>
      </trkpt>
      <trkpt lat="45.04034" lon="5.22988">
        <ele>648.8</ele>
        <time>2026-03-29T10:16:09.000Z</time>
      </trkpt>
      <trkpt lat="45.04038" lon="5.22976">
        <ele>646.6</ele>
        <time>2026-03-29T10:16:24.000Z</time>
      </trkpt>
      <trkpt lat="45.04039" lon="5.2297">
        <ele>645.5</ele>
        <time>2026-03-29T10:16:31.500Z</time>
      </trkpt>
      <trkpt lat="45.04041" lon="5.22964">
        <ele>644.7</ele>
        <time>2026-03-29T10:16:39.000Z</time>
      </trkpt>
      <trkpt lat="45.04042" lon="5.22958">
        <ele>643.8</ele>
        <time>2026-03-29T10:16:46.500Z</time>
      </trkpt>
      <trkpt lat="45.04044" lon="5.22952">
        <ele>643</ele>
        <time>2026-03-29T10:16:54.000Z</time>
      </trkpt>
      <trkpt lat="45.04076" lon="5.22893">
        <ele>626.2</ele>
        <time>2026-03-29T10:17:54.000Z</time>
      </trkpt>
      <trkpt lat="45.04088" lon="5.22859">
        <ele>619.8</ele>
        <time>2026-03-29T10:18:24.000Z</time>
      </trkpt>
      <trkpt lat="45.0409" lon="5.2285">
        <ele>618.5</ele>
        <time>2026-03-29T10:18:31.500Z</time>
      </trkpt>
      <trkpt lat="45.04102" lon="5.22815">
        <ele>612.5</ele>
        <time>2026-03-29T10:19:01.500Z</time>
      </trkpt>
      <trkpt lat="45.04104" lon="5.22806">
        <ele>611.1</ele>
        <time>2026-03-29T10:19:09.000Z</time>
      </trkpt>
      <trkpt lat="45.04107" lon="5.22797">
        <ele>609.3</ele>
        <time>2026-03-29T10:19:16.500Z</time>
      </trkpt>
      <trkpt lat="45.04114" lon="5.22769">
        <ele>603.9</ele>
        <time>2026-03-29T10:19:39.000Z</time>
      </trkpt>
      <trkpt lat="45.04117" lon="5.2276">
        <ele>602.1</ele>
        <time>2026-03-29T10:19:46.500Z</time>
      </trkpt>
      <trkpt lat="45.04119" lon="5.22751">
        <ele>600.2</ele>
        <time>2026-03-29T10:19:54.000Z</time>
      </trkpt>
      <trkpt lat="45.04135" lon="5.22713">
        <ele>588.7</ele>
        <time>2026-03-29T10:20:54.000Z</time>
      </trkpt>
      <trkpt lat="45.04157" lon="5.22688">
        <ele>572.7</ele>
        <time>2026-03-29T10:21:54.000Z</time>
      </trkpt>
      <trkpt lat="45.04166" lon="5.22667">
        <ele>565.2</ele>
        <time>2026-03-29T10:22:16.500Z</time>
      </trkpt>
      <trkpt lat="45.0417" lon="5.22661">
        <ele>562.7</ele>
        <time>2026-03-29T10:22:24.000Z</time>
      </trkpt>
      <trkpt lat="45.04182" lon="5.22633">
        <ele>553</ele>
        <time>2026-03-29T10:22:54.000Z</time>
      </trkpt>
      <trkpt lat="45.04183" lon="5.22626">
        <ele>551.4</ele>
        <time>2026-03-29T10:23:01.500Z</time>
      </trkpt>
      <trkpt lat="45.04185" lon="5.22619">
        <ele>549.8</ele>
        <time>2026-03-29T10:23:09.000Z</time>
      </trkpt>
      <trkpt lat="45.04186" lon="5.22611">
        <ele>548.2</ele>
        <time>2026-03-29T10:23:16.500Z</time>
      </trkpt>
      <trkpt lat="45.04188" lon="5.22604">
        <ele>546.4</ele>
        <time>2026-03-29T10:23:24.000Z</time>
      </trkpt>
      <trkpt lat="45.0419" lon="5.2259">
        <ele>542.9</ele>
        <time>2026-03-29T10:23:39.000Z</time>
      </trkpt>
      <trkpt lat="45.04192" lon="5.22582">
        <ele>541.2</ele>
        <time>2026-03-29T10:23:46.500Z</time>
      </trkpt>
      <trkpt lat="45.04193" lon="5.22575">
        <ele>539.8</ele>
        <time>2026-03-29T10:23:54.000Z</time>
      </trkpt>
      <trkpt lat="45.04189" lon="5.22526">
        <ele>536.8</ele>
        <time>2026-03-29T10:24:54.000Z</time>
      </trkpt>
      <trkpt lat="45.04199" lon="5.22512">
        <ele>531.9</ele>
        <time>2026-03-29T10:25:58.000Z</time>
      </trkpt>
      <trkpt lat="45.04208" lon="5.22509">
        <ele>529</ele>
        <time>2026-03-29T10:26:13.000Z</time>
      </trkpt>
      <trkpt lat="45.04217" lon="5.22507">
        <ele>526.2</ele>
        <time>2026-03-29T10:26:28.000Z</time>
      </trkpt>
      <trkpt lat="45.04234" lon="5.22501">
        <ele>520.7</ele>
        <time>2026-03-29T10:26:58.000Z</time>
      </trkpt>
      <trkpt lat="45.04241" lon="5.22506">
        <ele>519.2</ele>
        <time>2026-03-29T10:27:05.500Z</time>
      </trkpt>
      <trkpt lat="45.04247" lon="5.22512">
        <ele>517.6</ele>
        <time>2026-03-29T10:27:13.000Z</time>
      </trkpt>
      <trkpt lat="45.04261" lon="5.22522">
        <ele>514.6</ele>
        <time>2026-03-29T10:27:28.000Z</time>
      </trkpt>
      <trkpt lat="45.04274" lon="5.22533">
        <ele>511.3</ele>
        <time>2026-03-29T10:27:43.000Z</time>
      </trkpt>
      <trkpt lat="45.04287" lon="5.22543">
        <ele>508.2</ele>
        <time>2026-03-29T10:27:58.000Z</time>
      </trkpt>
      <trkpt lat="45.04293" lon="5.22559">
        <ele>507</ele>
        <time>2026-03-29T10:28:05.500Z</time>
      </trkpt>
      <trkpt lat="45.043" lon="5.22574">
        <ele>505</ele>
        <time>2026-03-29T10:28:13.000Z</time>
      </trkpt>
      <trkpt lat="45.04321" lon="5.22629">
        <ele>496.4</ele>
        <time>2026-03-29T10:28:39.250Z</time>
      </trkpt>
      <trkpt lat="45.04325" lon="5.22637">
        <ele>495</ele>
        <time>2026-03-29T10:28:43.000Z</time>
      </trkpt>
      <trkpt lat="45.04337" lon="5.22668">
        <ele>492.3</ele>
        <time>2026-03-29T10:28:58.000Z</time>
      </trkpt>
      <trkpt lat="45.04342" lon="5.22667">
        <ele>490.9</ele>
        <time>2026-03-29T10:29:05.500Z</time>
      </trkpt>
      <trkpt lat="45.04346" lon="5.22665">
        <ele>489.7</ele>
        <time>2026-03-29T10:29:13.000Z</time>
      </trkpt>
      <trkpt lat="45.04351" lon="5.22664">
        <ele>488.5</ele>
        <time>2026-03-29T10:29:20.500Z</time>
      </trkpt>
      <trkpt lat="45.04355" lon="5.22662">
        <ele>487.2</ele>
        <time>2026-03-29T10:29:28.000Z</time>
      </trkpt>
      <trkpt lat="45.0436" lon="5.22661">
        <ele>486</ele>
        <time>2026-03-29T10:29:35.500Z</time>
      </trkpt>
      <trkpt lat="45.04364" lon="5.22659">
        <ele>484.7</ele>
        <time>2026-03-29T10:29:43.000Z</time>
      </trkpt>
      <trkpt lat="45.04369" lon="5.22658">
        <ele>483.3</ele>
        <time>2026-03-29T10:29:50.500Z</time>
      </trkpt>
      <trkpt lat="45.04373" lon="5.22656">
        <ele>481.9</ele>
        <time>2026-03-29T10:29:58.000Z</time>
      </trkpt>
      <trkpt lat="45.04382" lon="5.22656">
        <ele>479.2</ele>
        <time>2026-03-29T10:30:05.500Z</time>
      </trkpt>
      <trkpt lat="45.04387" lon="5.22655">
        <ele>477.9</ele>
        <time>2026-03-29T10:30:09.250Z</time>
      </trkpt>
      <trkpt lat="45.04401" lon="5.22655">
        <ele>473.5</ele>
        <time>2026-03-29T10:30:20.500Z</time>
      </trkpt>
      <trkpt lat="45.04406" lon="5.22654">
        <ele>472.1</ele>
        <time>2026-03-29T10:30:24.250Z</time>
      </trkpt>
      <trkpt lat="45.0442" lon="5.22654">
        <ele>467.8</ele>
        <time>2026-03-29T10:30:35.500Z</time>
      </trkpt>
      <trkpt lat="45.04425" lon="5.22653">
        <ele>466.5</ele>
        <time>2026-03-29T10:30:39.250Z</time>
      </trkpt>
      <trkpt lat="45.04439" lon="5.22653">
        <ele>462.5</ele>
        <time>2026-03-29T10:30:50.500Z</time>
      </trkpt>
      <trkpt lat="45.04443" lon="5.22652">
        <ele>461.2</ele>
        <time>2026-03-29T10:30:54.250Z</time>
      </trkpt>
      <trkpt lat="45.04448" lon="5.22652">
        <ele>459.9</ele>
        <time>2026-03-29T10:30:58.000Z</time>
      </trkpt>
      <trkpt lat="45.04457" lon="5.22656">
        <ele>458.2</ele>
        <time>2026-03-29T10:31:05.500Z</time>
      </trkpt>
      <trkpt lat="45.04462" lon="5.22657">
        <ele>457.4</ele>
        <time>2026-03-29T10:31:09.250Z</time>
      </trkpt>
      <trkpt lat="45.0448" lon="5.22665">
        <ele>454.3</ele>
        <time>2026-03-29T10:31:24.250Z</time>
      </trkpt>
      <trkpt lat="45.04489" lon="5.22668">
        <ele>452.8</ele>
        <time>2026-03-29T10:31:31.750Z</time>
      </trkpt>
      <trkpt lat="45.04507" lon="5.22676">
        <ele>450.1</ele>
        <time>2026-03-29T10:31:46.750Z</time>
      </trkpt>
      <trkpt lat="45.04512" lon="5.22677">
        <ele>449.2</ele>
        <time>2026-03-29T10:31:50.500Z</time>
      </trkpt>
      <trkpt lat="45.04521" lon="5.22681">
        <ele>447.5</ele>
        <time>2026-03-29T10:31:58.000Z</time>
      </trkpt>
      <trkpt lat="45.04529" lon="5.22686">
        <ele>446.2</ele>
        <time>2026-03-29T10:32:05.500Z</time>
      </trkpt>
      <trkpt lat="45.04538" lon="5.2269">
        <ele>444.9</ele>
        <time>2026-03-29T10:32:13.000Z</time>
      </trkpt>
      <trkpt lat="45.04546" lon="5.22695">
        <ele>443.6</ele>
        <time>2026-03-29T10:32:20.500Z</time>
      </trkpt>
      <trkpt lat="45.04554" lon="5.22699">
        <ele>442.2</ele>
        <time>2026-03-29T10:32:28.000Z</time>
      </trkpt>
      <trkpt lat="45.04562" lon="5.22704">
        <ele>440.8</ele>
        <time>2026-03-29T10:32:35.500Z</time>
      </trkpt>
      <trkpt lat="45.04571" lon="5.22708">
        <ele>439.5</ele>
        <time>2026-03-29T10:32:43.000Z</time>
      </trkpt>
      <trkpt lat="45.04579" lon="5.22713">
        <ele>438.1</ele>
        <time>2026-03-29T10:32:50.500Z</time>
      </trkpt>
      <trkpt lat="45.04591" lon="5.22719">
        <ele>435.9</ele>
        <time>2026-03-29T10:33:01.750Z</time>
      </trkpt>
      <trkpt lat="45.046" lon="5.22722">
        <ele>434.1</ele>
        <time>2026-03-29T10:33:09.250Z</time>
      </trkpt>
      <trkpt lat="45.04617" lon="5.2273">
        <ele>431</ele>
        <time>2026-03-29T10:33:24.250Z</time>
      </trkpt>
      <trkpt lat="45.04626" lon="5.22733">
        <ele>429.6</ele>
        <time>2026-03-29T10:33:31.750Z</time>
      </trkpt>
      <trkpt lat="45.04643" lon="5.22741">
        <ele>427</ele>
        <time>2026-03-29T10:33:46.750Z</time>
      </trkpt>
      <trkpt lat="45.04652" lon="5.22744">
        <ele>425.9</ele>
        <time>2026-03-29T10:33:54.250Z</time>
      </trkpt>
      <trkpt lat="45.04656" lon="5.22746">
        <ele>425.4</ele>
        <time>2026-03-29T10:33:58.000Z</time>
      </trkpt>
      <trkpt lat="45.04685" lon="5.22752">
        <ele>419.8</ele>
        <time>2026-03-29T10:34:20.500Z</time>
      </trkpt>
      <trkpt lat="45.04694" lon="5.22755">
        <ele>417.8</ele>
        <time>2026-03-29T10:34:28.000Z</time>
      </trkpt>
      <trkpt lat="45.04732" lon="5.22763">
        <ele>410.6</ele>
        <time>2026-03-29T10:34:58.000Z</time>
      </trkpt>
      <trkpt lat="45.04747" lon="5.22769">
        <ele>409.6</ele>
        <time>2026-03-29T10:35:13.000Z</time>
      </trkpt>
      <trkpt lat="45.04776" lon="5.22782">
        <ele>408.8</ele>
        <time>2026-03-29T10:35:43.000Z</time>
      </trkpt>
      <trkpt lat="45.04791" lon="5.22788">
        <ele>407.2</ele>
        <time>2026-03-29T10:35:58.000Z</time>
      </trkpt>
      <trkpt lat="45.04805" lon="5.22798">
        <ele>405.5</ele>
        <time>2026-03-29T10:36:13.000Z</time>
      </trkpt>
      <trkpt lat="45.04812" lon="5.22802">
        <ele>404.4</ele>
        <time>2026-03-29T10:36:20.500Z</time>
      </trkpt>
      <trkpt lat="45.04833" lon="5.22817">
        <ele>399.7</ele>
        <time>2026-03-29T10:36:43.000Z</time>
      </trkpt>
      <trkpt lat="45.0484" lon="5.22821">
        <ele>398.1</ele>
        <time>2026-03-29T10:36:50.500Z</time>
      </trkpt>
      <trkpt lat="45.04847" lon="5.22826">
        <ele>396.4</ele>
        <time>2026-03-29T10:36:58.000Z</time>
      </trkpt>
      <trkpt lat="45.04854" lon="5.2283">
        <ele>394.7</ele>
        <time>2026-03-29T10:37:05.500Z</time>
      </trkpt>
      <trkpt lat="45.04862" lon="5.22833">
        <ele>392.9</ele>
        <time>2026-03-29T10:37:13.000Z</time>
      </trkpt>
      <trkpt lat="45.04869" lon="5.22837">
        <ele>392.2</ele>
        <time>2026-03-29T10:37:20.500Z</time>
      </trkpt>
      <trkpt lat="45.04877" lon="5.2284">
        <ele>391.3</ele>
        <time>2026-03-29T10:37:28.000Z</time>
      </trkpt>
      <trkpt lat="45.04884" lon="5.22844">
        <ele>390.3</ele>
        <time>2026-03-29T10:37:35.500Z</time>
      </trkpt>
      <trkpt lat="45.04906" lon="5.22854">
        <ele>385.7</ele>
        <time>2026-03-29T10:37:58.000Z</time>
      </trkpt>
      <trkpt lat="45.04917" lon="5.22851">
        <ele>383.6</ele>
        <time>2026-03-29T10:38:05.500Z</time>
      </trkpt>
      <trkpt lat="45.04928" lon="5.22849">
        <ele>380.9</ele>
        <time>2026-03-29T10:38:13.000Z</time>
      </trkpt>
      <trkpt lat="45.04933" lon="5.22847">
        <ele>379.5</ele>
        <time>2026-03-29T10:38:16.750Z</time>
      </trkpt>
      <trkpt lat="45.04939" lon="5.22846">
        <ele>378.2</ele>
        <time>2026-03-29T10:38:20.500Z</time>
      </trkpt>
      <trkpt lat="45.04944" lon="5.22844">
        <ele>376.9</ele>
        <time>2026-03-29T10:38:24.250Z</time>
      </trkpt>
      <trkpt lat="45.04955" lon="5.22842">
        <ele>374.8</ele>
        <time>2026-03-29T10:38:31.750Z</time>
      </trkpt>
      <trkpt lat="45.0496" lon="5.2284">
        <ele>373.8</ele>
        <time>2026-03-29T10:38:35.500Z</time>
      </trkpt>
      <trkpt lat="45.04971" lon="5.22838">
        <ele>371.8</ele>
        <time>2026-03-29T10:38:43.000Z</time>
      </trkpt>
      <trkpt lat="45.04993" lon="5.22832">
        <ele>368</ele>
        <time>2026-03-29T10:38:58.000Z</time>
      </trkpt>
      <trkpt lat="45.05025" lon="5.2291">
        <ele>361.2</ele>
        <time>2026-03-29T10:39:58.000Z</time>
      </trkpt>
      <trkpt lat="45.05088" lon="5.22985">
        <ele>340.2</ele>
        <time>2026-03-29T10:40:58.000Z</time>
      </trkpt>
      <trkpt lat="45.05095" lon="5.22994">
        <ele>338.6</ele>
        <time>2026-03-29T10:41:05.500Z</time>
      </trkpt>
      <trkpt lat="45.05103" lon="5.23003">
        <ele>337.3</ele>
        <time>2026-03-29T10:41:13.000Z</time>
      </trkpt>
      <trkpt lat="45.05106" lon="5.23008">
        <ele>336.8</ele>
        <time>2026-03-29T10:41:16.750Z</time>
      </trkpt>
      <trkpt lat="45.05114" lon="5.23017">
        <ele>335.5</ele>
        <time>2026-03-29T10:41:24.250Z</time>
      </trkpt>
      <trkpt lat="45.05121" lon="5.23026">
        <ele>334.6</ele>
        <time>2026-03-29T10:41:31.750Z</time>
      </trkpt>
      <trkpt lat="45.05129" lon="5.23035">
        <ele>334</ele>
        <time>2026-03-29T10:41:39.250Z</time>
      </trkpt>
      <trkpt lat="45.05132" lon="5.2304">
        <ele>333.8</ele>
        <time>2026-03-29T10:41:43.000Z</time>
      </trkpt>
      <trkpt lat="45.0514" lon="5.23049">
        <ele>333.1</ele>
        <time>2026-03-29T10:41:50.500Z</time>
      </trkpt>
      <trkpt lat="45.05147" lon="5.23058">
        <ele>332.8</ele>
        <time>2026-03-29T10:41:58.000Z</time>
      </trkpt>
      <trkpt lat="45.05153" lon="5.23064">
        <ele>332</ele>
        <time>2026-03-29T10:42:05.500Z</time>
      </trkpt>
      <trkpt lat="45.0516" lon="5.23069">
        <ele>331.1</ele>
        <time>2026-03-29T10:42:13.000Z</time>
      </trkpt>
      <trkpt lat="45.05172" lon="5.23081">
        <ele>329.6</ele>
        <time>2026-03-29T10:42:28.000Z</time>
      </trkpt>
      <trkpt lat="45.05197" lon="5.23103">
        <ele>328</ele>
        <time>2026-03-29T10:42:58.000Z</time>
      </trkpt>
      <trkpt lat="45.05201" lon="5.23105">
        <ele>327.2</ele>
        <time>2026-03-29T10:43:01.750Z</time>
      </trkpt>
      <trkpt lat="45.05206" lon="5.23106">
        <ele>326.4</ele>
        <time>2026-03-29T10:43:05.500Z</time>
      </trkpt>
      <trkpt lat="45.05215" lon="5.2311">
        <ele>324.7</ele>
        <time>2026-03-29T10:43:13.000Z</time>
      </trkpt>
      <trkpt lat="45.05233" lon="5.23116">
        <ele>322.7</ele>
        <time>2026-03-29T10:43:28.000Z</time>
      </trkpt>
      <trkpt lat="45.05237" lon="5.23118">
        <ele>322.5</ele>
        <time>2026-03-29T10:43:31.750Z</time>
      </trkpt>
      <trkpt lat="45.05246" lon="5.23121">
        <ele>321.9</ele>
        <time>2026-03-29T10:43:39.250Z</time>
      </trkpt>
      <trkpt lat="45.0525" lon="5.23123">
        <ele>321.7</ele>
        <time>2026-03-29T10:43:43.000Z</time>
      </trkpt>
      <trkpt lat="45.05255" lon="5.23124">
        <ele>322</ele>
        <time>2026-03-29T10:43:46.750Z</time>
      </trkpt>
      <trkpt lat="45.05259" lon="5.23126">
        <ele>322.4</ele>
        <time>2026-03-29T10:43:50.500Z</time>
      </trkpt>
      <trkpt lat="45.05264" lon="5.23127">
        <ele>322.8</ele>
        <time>2026-03-29T10:43:54.250Z</time>
      </trkpt>
      <trkpt lat="45.05268" lon="5.23129">
        <ele>323.1</ele>
        <time>2026-03-29T10:43:58.000Z</time>
      </trkpt>
      <trkpt lat="45.05272" lon="5.23126">
        <ele>322.2</ele>
        <time>2026-03-29T10:44:05.500Z</time>
      </trkpt>
      <trkpt lat="45.05276" lon="5.23124">
        <ele>321.2</ele>
        <time>2026-03-29T10:44:13.000Z</time>
      </trkpt>
      <trkpt lat="45.0528" lon="5.23121">
        <ele>320.2</ele>
        <time>2026-03-29T10:44:20.500Z</time>
      </trkpt>
      <trkpt lat="45.05285" lon="5.23119">
        <ele>319.2</ele>
        <time>2026-03-29T10:44:28.000Z</time>
      </trkpt>
      <trkpt lat="45.05293" lon="5.23113">
        <ele>317.2</ele>
        <time>2026-03-29T10:44:43.000Z</time>
      </trkpt>
      <trkpt lat="45.05297" lon="5.23111">
        <ele>316.2</ele>
        <time>2026-03-29T10:44:50.500Z</time>
      </trkpt>
      <trkpt lat="45.05301" lon="5.23108">
        <ele>315.3</ele>
        <time>2026-03-29T10:44:58.000Z</time>
      </trkpt>
      <trkpt lat="45.05282" lon="5.23083">
        <ele>308.8</ele>
        <time>2026-03-29T10:45:20.499Z</time>
      </trkpt>
      <trkpt lat="45.05275" lon="5.23075">
        <ele>307.3</ele>
        <time>2026-03-29T10:45:27.999Z</time>
      </trkpt>
      <trkpt lat="45.05269" lon="5.23066">
        <ele>306.2</ele>
        <time>2026-03-29T10:45:35.499Z</time>
      </trkpt>
      <trkpt lat="45.05262" lon="5.23058">
        <ele>305.1</ele>
        <time>2026-03-29T10:45:42.999Z</time>
      </trkpt>
      <trkpt lat="45.05256" lon="5.23049">
        <ele>304.3</ele>
        <time>2026-03-29T10:45:50.499Z</time>
      </trkpt>
      <trkpt lat="45.05249" lon="5.23041">
        <ele>303.5</ele>
        <time>2026-03-29T10:45:58.000Z</time>
      </trkpt>
      <trkpt lat="45.05213" lon="5.22941">
        <ele>293.8</ele>
        <time>2026-03-29T10:46:58.000Z</time>
      </trkpt>
      <trkpt lat="45.0521" lon="5.22931">
        <ele>292.8</ele>
        <time>2026-03-29T10:47:05.499Z</time>
      </trkpt>
      <trkpt lat="45.05206" lon="5.22921">
        <ele>291.9</ele>
        <time>2026-03-29T10:47:12.999Z</time>
      </trkpt>
      <trkpt lat="45.052" lon="5.229">
        <ele>289.9</ele>
        <time>2026-03-29T10:47:27.999Z</time>
      </trkpt>
      <trkpt lat="45.05196" lon="5.2289">
        <ele>288.9</ele>
        <time>2026-03-29T10:47:35.499Z</time>
      </trkpt>
      <trkpt lat="45.05186" lon="5.22859">
        <ele>290.3</ele>
        <time>2026-03-29T10:47:58.000Z</time>
      </trkpt>
      <trkpt lat="45.05189" lon="5.22853">
        <ele>289.3</ele>
        <time>2026-03-29T10:48:01.750Z</time>
      </trkpt>
      <trkpt lat="45.05191" lon="5.22846">
        <ele>288.3</ele>
        <time>2026-03-29T10:48:05.500Z</time>
      </trkpt>
      <trkpt lat="45.05197" lon="5.22833">
        <ele>286.6</ele>
        <time>2026-03-29T10:48:13.000Z</time>
      </trkpt>
      <trkpt lat="45.05202" lon="5.2282">
        <ele>284.7</ele>
        <time>2026-03-29T10:48:20.500Z</time>
      </trkpt>
      <trkpt lat="45.05208" lon="5.22807">
        <ele>283.2</ele>
        <time>2026-03-29T10:48:28.000Z</time>
      </trkpt>
      <trkpt lat="45.05213" lon="5.22794">
        <ele>281.4</ele>
        <time>2026-03-29T10:48:35.500Z</time>
      </trkpt>
      <trkpt lat="45.05216" lon="5.22788">
        <ele>280.5</ele>
        <time>2026-03-29T10:48:39.250Z</time>
      </trkpt>
      <trkpt lat="45.05218" lon="5.22781">
        <ele>279.6</ele>
        <time>2026-03-29T10:48:43.000Z</time>
      </trkpt>
      <trkpt lat="45.05224" lon="5.22768">
        <ele>277.9</ele>
        <time>2026-03-29T10:48:50.500Z</time>
      </trkpt>
      <trkpt lat="45.05229" lon="5.22755">
        <ele>276.5</ele>
        <time>2026-03-29T10:48:58.000Z</time>
      </trkpt>
      <trkpt lat="45.05226" lon="5.22749">
        <ele>275.9</ele>
        <time>2026-03-29T10:49:05.499Z</time>
      </trkpt>
      <trkpt lat="45.05222" lon="5.22743">
        <ele>275.2</ele>
        <time>2026-03-29T10:49:12.999Z</time>
      </trkpt>
      <trkpt lat="45.05219" lon="5.22736">
        <ele>274.8</ele>
        <time>2026-03-29T10:49:20.499Z</time>
      </trkpt>
      <trkpt lat="45.05215" lon="5.2273">
        <ele>274.4</ele>
        <time>2026-03-29T10:49:27.999Z</time>
      </trkpt>
      <trkpt lat="45.05212" lon="5.22724">
        <ele>273.9</ele>
        <time>2026-03-29T10:49:35.499Z</time>
      </trkpt>
      <trkpt lat="45.05208" lon="5.22718">
        <ele>273.3</ele>
        <time>2026-03-29T10:49:42.999Z</time>
      </trkpt>
      <trkpt lat="45.05205" lon="5.22711">
        <ele>272.7</ele>
        <time>2026-03-29T10:49:50.499Z</time>
      </trkpt>
      <trkpt lat="45.05198" lon="5.227">
        <ele>271.6</ele>
        <time>2026-03-29T10:50:01.749Z</time>
      </trkpt>
      <trkpt lat="45.05191" lon="5.22691">
        <ele>270.7</ele>
        <time>2026-03-29T10:50:09.249Z</time>
      </trkpt>
      <trkpt lat="45.05185" lon="5.22681">
        <ele>269.7</ele>
        <time>2026-03-29T10:50:16.749Z</time>
      </trkpt>
      <trkpt lat="45.05178" lon="5.22672">
        <ele>268.7</ele>
        <time>2026-03-29T10:50:24.249Z</time>
      </trkpt>
      <trkpt lat="45.05172" lon="5.22662">
        <ele>267.7</ele>
        <time>2026-03-29T10:50:31.749Z</time>
      </trkpt>
      <trkpt lat="45.05165" lon="5.22653">
        <ele>266.7</ele>
        <time>2026-03-29T10:50:39.249Z</time>
      </trkpt>
      <trkpt lat="45.05159" lon="5.22643">
        <ele>266.2</ele>
        <time>2026-03-29T10:50:46.749Z</time>
      </trkpt>
      <trkpt lat="45.05152" lon="5.22634">
        <ele>265.7</ele>
        <time>2026-03-29T10:50:54.249Z</time>
      </trkpt>
      <trkpt lat="45.05149" lon="5.22629">
        <ele>265.4</ele>
        <time>2026-03-29T10:50:58.000Z</time>
      </trkpt>
      <trkpt lat="45.05156" lon="5.22623">
        <ele>263.2</ele>
        <time>2026-03-29T10:51:05.500Z</time>
      </trkpt>
      <trkpt lat="45.05163" lon="5.22618">
        <ele>261</ele>
        <time>2026-03-29T10:51:13.000Z</time>
      </trkpt>
      <trkpt lat="45.05169" lon="5.22612">
        <ele>258.9</ele>
        <time>2026-03-29T10:51:20.500Z</time>
      </trkpt>
      <trkpt lat="45.05176" lon="5.22607">
        <ele>257.7</ele>
        <time>2026-03-29T10:51:28.000Z</time>
      </trkpt>
      <trkpt lat="45.05203" lon="5.22584">
        <ele>253.4</ele>
        <time>2026-03-29T10:51:58.000Z</time>
      </trkpt>
      <trkpt lat="45.0522" lon="5.22576">
        <ele>252.1</ele>
        <time>2026-03-29T10:52:13.000Z</time>
      </trkpt>
      <trkpt lat="45.05224" lon="5.22573">
        <ele>251.9</ele>
        <time>2026-03-29T10:52:16.750Z</time>
      </trkpt>
      <trkpt lat="45.05254" lon="5.22559">
        <ele>249.7</ele>
        <time>2026-03-29T10:52:43.000Z</time>
      </trkpt>
      <trkpt lat="45.05258" lon="5.22556">
        <ele>249.2</ele>
        <time>2026-03-29T10:52:46.750Z</time>
      </trkpt>
      <trkpt lat="45.05271" lon="5.2255">
        <ele>247.4</ele>
        <time>2026-03-29T10:52:58.000Z</time>
      </trkpt>
      <trkpt lat="45.05298" lon="5.22558">
        <ele>243.6</ele>
        <time>2026-03-29T10:53:17.403Z</time>
      </trkpt>
      <trkpt lat="45.05305" lon="5.22559">
        <ele>242.7</ele>
        <time>2026-03-29T10:53:22.254Z</time>
      </trkpt>
      <trkpt lat="45.05325" lon="5.22565">
        <ele>238.7</ele>
        <time>2026-03-29T10:53:36.807Z</time>
      </trkpt>
      <trkpt lat="45.05337" lon="5.22604">
        <ele>236.3</ele>
        <time>2026-03-29T10:53:58.000Z</time>
      </trkpt>
      <trkpt lat="45.05348" lon="5.22577">
        <ele>234.1</ele>
        <time>2026-03-29T10:54:13.000Z</time>
      </trkpt>
      <trkpt lat="45.0535" lon="5.2257">
        <ele>233.1</ele>
        <time>2026-03-29T10:54:16.750Z</time>
      </trkpt>
      <trkpt lat="45.05353" lon="5.22564">
        <ele>232.2</ele>
        <time>2026-03-29T10:54:20.500Z</time>
      </trkpt>
      <trkpt lat="45.05355" lon="5.22557">
        <ele>231.3</ele>
        <time>2026-03-29T10:54:24.250Z</time>
      </trkpt>
      <trkpt lat="45.05369" lon="5.22523">
        <ele>225.6</ele>
        <time>2026-03-29T10:54:43.000Z</time>
      </trkpt>
      <trkpt lat="45.05371" lon="5.22516">
        <ele>224.7</ele>
        <time>2026-03-29T10:54:46.750Z</time>
      </trkpt>
      <trkpt lat="45.05374" lon="5.2251">
        <ele>223.9</ele>
        <time>2026-03-29T10:54:50.500Z</time>
      </trkpt>
      <trkpt lat="45.05376" lon="5.22503">
        <ele>223</ele>
        <time>2026-03-29T10:54:54.250Z</time>
      </trkpt>
      <trkpt lat="45.05379" lon="5.22496">
        <ele>222.1</ele>
        <time>2026-03-29T10:54:58.000Z</time>
      </trkpt>
      <trkpt lat="45.05411" lon="5.22527">
        <ele>221.4</ele>
        <time>2026-03-29T10:55:58.000Z</time>
      </trkpt>
      <trkpt lat="45.05419" lon="5.22522">
        <ele>220.4</ele>
        <time>2026-03-29T10:56:05.500Z</time>
      </trkpt>
      <trkpt lat="45.05426" lon="5.22516">
        <ele>219.5</ele>
        <time>2026-03-29T10:56:13.000Z</time>
      </trkpt>
      <trkpt lat="45.05434" lon="5.22511">
        <ele>218.5</ele>
        <time>2026-03-29T10:56:20.500Z</time>
      </trkpt>
      <trkpt lat="45.05441" lon="5.22505">
        <ele>217.6</ele>
        <time>2026-03-29T10:56:28.000Z</time>
      </trkpt>
      <trkpt lat="45.05449" lon="5.225">
        <ele>216.8</ele>
        <time>2026-03-29T10:56:35.500Z</time>
      </trkpt>
      <trkpt lat="45.05456" lon="5.22494">
        <ele>216.2</ele>
        <time>2026-03-29T10:56:43.000Z</time>
      </trkpt>
      <trkpt lat="45.05464" lon="5.22489">
        <ele>215.5</ele>
        <time>2026-03-29T10:56:50.500Z</time>
      </trkpt>
      <trkpt lat="45.05471" lon="5.22483">
        <ele>214.8</ele>
        <time>2026-03-29T10:56:58.000Z</time>
      </trkpt>
      <trkpt lat="45.05478" lon="5.2249">
        <ele>215.1</ele>
        <time>2026-03-29T10:57:05.500Z</time>
      </trkpt>
      <trkpt lat="45.05486" lon="5.22496">
        <ele>215.3</ele>
        <time>2026-03-29T10:57:13.000Z</time>
      </trkpt>
      <trkpt lat="45.055" lon="5.2251">
        <ele>215.3</ele>
        <time>2026-03-29T10:57:28.000Z</time>
      </trkpt>
      <trkpt lat="45.05529" lon="5.22536">
        <ele>215.3</ele>
        <time>2026-03-29T10:57:58.000Z</time>
        <extensions>
          <visugpx:TrkExtension xmlns:visugpx="https://www.visugpx.com/editgpx/">
            <visugpx:node>1</visugpx:node>
            </visugpx:TrkExtension>
        </extensions>
      </trkpt>
    </trkseg>
  </trk>
</gpx>